<?xml version='1.0' encoding='UTF-8'?><gpx version="1.1" creator="JPX - https://github.com/jenetics/jpx" xmlns="http://www.topografix.com/GPX/1/1"><trk><trkseg><trkpt lat="45.93790855836455" lon="10.297183599833087"><ele>457.0</ele><time>2026-05-02T14:15:02.001Z</time></trkpt><trkpt lat="45.93779943948732" lon="10.297216537573997"><ele>457.0</ele><time>2026-05-02T14:15:03.001Z</time></trkpt><trkpt lat="45.93769222668128" lon="10.297264595726583"><ele>457.0</ele><time>2026-05-02T14:15:04.001Z</time></trkpt><trkpt lat="45.93758792899719" lon="10.297318367497786"><ele>457.0</ele><time>2026-05-02T14:15:05.001Z</time></trkpt><trkpt lat="45.93748200015875" lon="10.297385272196008"><ele>464.20000000000005</ele><time>2026-05-02T14:15:06.001Z</time></trkpt><trkpt lat="45.93738181315275" lon="10.297452988636586"><ele>471.40000000000003</ele><time>2026-05-02T14:15:07.001Z</time></trkpt><trkpt lat="45.9372825383434" lon="10.297504262294503"><ele>478.59999999999997</ele><time>2026-05-02T14:15:08.001Z</time></trkpt><trkpt lat="45.937187669907146" lon="10.297558001884319"><ele>485.79999999999995</ele><time>2026-05-02T14:15:09.001Z</time></trkpt><trkpt lat="45.93709633606322" lon="10.297616446906158"><ele>493.0</ele><time>2026-05-02T14:15:10.001Z</time></trkpt><trkpt lat="45.937001573974825" lon="10.297664501308502"><ele>493.0</ele><time>2026-05-02T14:15:11.001Z</time></trkpt><trkpt lat="45.93690385708962" lon="10.297686797399665"><ele>492.99999999999994</ele><time>2026-05-02T14:15:12.001Z</time></trkpt><trkpt lat="45.93680759860487" lon="10.29769316461941"><ele>492.99999999999994</ele><time>2026-05-02T14:15:13.001Z</time></trkpt><trkpt lat="45.9367094960579" lon="10.297697635600409"><ele>493.0</ele><time>2026-05-02T14:15:14.001Z</time></trkpt><trkpt lat="45.936618720181336" lon="10.297721148357196"><ele>493.0</ele><time>2026-05-02T14:15:15.001Z</time></trkpt><trkpt lat="45.93653279913321" lon="10.297761269255084"><ele>490.4</ele><time>2026-05-02T14:15:16.001Z</time></trkpt><trkpt lat="45.93644497690386" lon="10.297804463557489"><ele>487.79999999999995</ele><time>2026-05-02T14:15:17.001Z</time></trkpt><trkpt lat="45.93635305290733" lon="10.297843202296281"><ele>485.2</ele><time>2026-05-02T14:15:18.001Z</time></trkpt><trkpt lat="45.93626025953501" lon="10.297877316792357"><ele>482.6</ele><time>2026-05-02T14:15:19.001Z</time></trkpt><trkpt lat="45.93616617709827" lon="10.297906078527012"><ele>480.0</ele><time>2026-05-02T14:15:20.001Z</time></trkpt><trkpt lat="45.93607366765697" lon="10.297935054297552"><ele>480.0</ele><time>2026-05-02T14:15:21.001Z</time></trkpt><trkpt lat="45.935981109959556" lon="10.297989749220992"><ele>480.0</ele><time>2026-05-02T14:15:22.001Z</time></trkpt><trkpt lat="45.935891867472996" lon="10.298072194544156"><ele>480.0</ele><time>2026-05-02T14:15:23.001Z</time></trkpt><trkpt lat="45.935796610535036" lon="10.298157942711377"><ele>480.0</ele><time>2026-05-02T14:15:24.001Z</time></trkpt><trkpt lat="45.93568877887067" lon="10.29822331042974"><ele>480.0</ele><time>2026-05-02T14:15:25.001Z</time></trkpt><trkpt lat="45.935568934547426" lon="10.298290839020808"><ele>487.0</ele><time>2026-05-02T14:15:26.001Z</time></trkpt><trkpt lat="45.935447346316266" lon="10.298341865632556"><ele>494.0</ele><time>2026-05-02T14:15:27.001Z</time></trkpt><trkpt lat="45.9353227795685" lon="10.298395293824635"><ele>501.0</ele><time>2026-05-02T14:15:28.001Z</time></trkpt><trkpt lat="45.93520002680404" lon="10.29846609244542"><ele>508.0</ele><time>2026-05-02T14:15:29.001Z</time></trkpt><trkpt lat="45.93507691182481" lon="10.298538473985017"><ele>504.0</ele><time>2026-05-02T14:15:30.001Z</time></trkpt><trkpt lat="45.93495735523147" lon="10.298652004722273"><ele>500.0</ele><time>2026-05-02T14:15:31.001Z</time></trkpt><trkpt lat="45.93482623381835" lon="10.298741860652367"><ele>496.0</ele><time>2026-05-02T14:15:32.001Z</time></trkpt><trkpt lat="45.93469593888749" lon="10.298828996752096"><ele>492.0</ele><time>2026-05-02T14:15:33.001Z</time></trkpt><trkpt lat="45.934569052765866" lon="10.298915031518765"><ele>494.75</ele><time>2026-05-02T14:15:34.001Z</time></trkpt><trkpt lat="45.93444761352711" lon="10.298996526973854"><ele>497.5</ele><time>2026-05-02T14:15:35.001Z</time></trkpt><trkpt lat="45.934326475848" lon="10.299067077254708"><ele>500.25</ele><time>2026-05-02T14:15:36.001Z</time></trkpt><trkpt lat="45.93420678732413" lon="10.299107006561547"><ele>503.0</ele><time>2026-05-02T14:15:37.001Z</time></trkpt><trkpt lat="45.934086600980315" lon="10.299120113766286"><ele>503.0</ele><time>2026-05-02T14:15:38.001Z</time></trkpt><trkpt lat="45.93397550713881" lon="10.299116672523608"><ele>502.99999999999994</ele><time>2026-05-02T14:15:39.001Z</time></trkpt><trkpt lat="45.93386747545875" lon="10.299114835662227"><ele>502.99999999999994</ele><time>2026-05-02T14:15:40.001Z</time></trkpt><trkpt lat="45.93375999297622" lon="10.29912366871648"><ele>503.0</ele><time>2026-05-02T14:15:41.001Z</time></trkpt><trkpt lat="45.9336468277124" lon="10.299159540782103"><ele>503.0</ele><time>2026-05-02T14:15:42.001Z</time></trkpt><trkpt lat="45.933527085547745" lon="10.29918634995297"><ele>503.0</ele><time>2026-05-02T14:15:43.001Z</time></trkpt><trkpt lat="45.93340788918659" lon="10.299238049565819"><ele>503.0</ele><time>2026-05-02T14:15:44.001Z</time></trkpt><trkpt lat="45.93328872862071" lon="10.299303926733685"><ele>503.0</ele><time>2026-05-02T14:15:45.001Z</time></trkpt><trkpt lat="45.93316323975546" lon="10.299351810330338"><ele>503.0</ele><time>2026-05-02T14:15:46.001Z</time></trkpt><trkpt lat="45.93303779828557" lon="10.299401926551715"><ele>503.25</ele><time>2026-05-02T14:15:47.001Z</time></trkpt><trkpt lat="45.93291182340768" lon="10.299455082846235"><ele>503.5</ele><time>2026-05-02T14:15:48.001Z</time></trkpt><trkpt lat="45.93278243032952" lon="10.299502716199683"><ele>503.75</ele><time>2026-05-02T14:15:49.001Z</time></trkpt><trkpt lat="45.93265354423571" lon="10.29953652111579"><ele>504.0</ele><time>2026-05-02T14:15:50.001Z</time></trkpt><trkpt lat="45.93253437969361" lon="10.29956375910103"><ele>502.0</ele><time>2026-05-02T14:15:51.001Z</time></trkpt><trkpt lat="45.932443724000194" lon="10.29958454404862"><ele>500.0</ele><time>2026-05-02T14:15:52.001Z</time></trkpt><trkpt lat="45.93236989701902" lon="10.299599513084573"><ele>498.0</ele><time>2026-05-02T14:15:53.001Z</time></trkpt><trkpt lat="45.93225569993815" lon="10.299620529964185"><ele>496.0</ele><time>2026-05-02T14:15:55.001Z</time></trkpt><trkpt lat="45.932190064722505" lon="10.299664941839955"><ele>494.0</ele><time>2026-05-02T14:15:57.002Z</time></trkpt><trkpt lat="45.932099379109516" lon="10.299765333808237"><ele>495.79999999999995</ele><time>2026-05-02T14:15:59.002Z</time></trkpt><trkpt lat="45.93200958592536" lon="10.29978070103229"><ele>497.59999999999997</ele><time>2026-05-02T14:16:00.002Z</time></trkpt><trkpt lat="45.93193879496067" lon="10.299855454528533"><ele>499.4</ele><time>2026-05-02T14:16:01.002Z</time></trkpt><trkpt lat="45.931855401881954" lon="10.299922096214932"><ele>501.2</ele><time>2026-05-02T14:16:02.002Z</time></trkpt><trkpt lat="45.931775083085036" lon="10.299979733414203"><ele>503.0</ele><time>2026-05-02T14:16:03.002Z</time></trkpt><trkpt lat="45.93168888376676" lon="10.300002505397044"><ele>502.99999999999994</ele><time>2026-05-02T14:16:04.002Z</time></trkpt><trkpt lat="45.93160389859099" lon="10.299965294424192"><ele>503.0</ele><time>2026-05-02T14:16:05.002Z</time></trkpt><trkpt lat="45.931517293488824" lon="10.299945629790763"><ele>503.0</ele><time>2026-05-02T14:16:06.002Z</time></trkpt><trkpt lat="45.93143558362456" lon="10.299946363507411"><ele>503.0</ele><time>2026-05-02T14:16:07.002Z</time></trkpt><trkpt lat="45.93137559572787" lon="10.299904314209028"><ele>502.99999999999994</ele><time>2026-05-02T14:16:08.002Z</time></trkpt><trkpt lat="45.931269375557186" lon="10.299881758464785"><ele>503.0</ele><time>2026-05-02T14:16:10.002Z</time></trkpt><trkpt lat="45.931144859669274" lon="10.299840028002812"><ele>502.99999999999994</ele><time>2026-05-02T14:16:12.002Z</time></trkpt><trkpt lat="45.93107365903031" lon="10.29980067325819"><ele>503.0</ele><time>2026-05-02T14:16:13.002Z</time></trkpt><trkpt lat="45.93099156538312" lon="10.299778443735974"><ele>503.0</ele><time>2026-05-02T14:16:14.002Z</time></trkpt><trkpt lat="45.93091323873482" lon="10.299761305913297"><ele>503.0</ele><time>2026-05-02T14:16:15.002Z</time></trkpt><trkpt lat="45.930850865812566" lon="10.299721018999499"><ele>502.99999999999994</ele><time>2026-05-02T14:16:16.002Z</time></trkpt><trkpt lat="45.93072938969338" lon="10.299781675483187"><ele>503.0</ele><time>2026-05-02T14:16:18.002Z</time></trkpt><trkpt lat="45.93067272694987" lon="10.299876470862479"><ele>502.59999999999997</ele><time>2026-05-02T14:16:19.002Z</time></trkpt><trkpt lat="45.93059622457345" lon="10.299955409041155"><ele>502.19999999999993</ele><time>2026-05-02T14:16:20.002Z</time></trkpt><trkpt lat="45.93052486155478" lon="10.300064694150976"><ele>501.8</ele><time>2026-05-02T14:16:21.002Z</time></trkpt><trkpt lat="45.930464612192196" lon="10.300191119228176"><ele>501.4</ele><time>2026-05-02T14:16:22.002Z</time></trkpt><trkpt lat="45.93040626788693" lon="10.30032715043059"><ele>501.0</ele><time>2026-05-02T14:16:23.002Z</time></trkpt><trkpt lat="45.93034157796557" lon="10.300454426847095"><ele>501.0</ele><time>2026-05-02T14:16:24.002Z</time></trkpt><trkpt lat="45.93027555794488" lon="10.30056755701339"><ele>501.0</ele><time>2026-05-02T14:16:25.002Z</time></trkpt><trkpt lat="45.93021397165506" lon="10.300651286362074"><ele>501.0</ele><time>2026-05-02T14:16:26.002Z</time></trkpt><trkpt lat="45.930112352546466" lon="10.300684695651078"><ele>501.0</ele><time>2026-05-02T14:16:28.002Z</time></trkpt><trkpt lat="45.930041839807146" lon="10.300602128471464"><ele>501.0</ele><time>2026-05-02T14:16:30.002Z</time></trkpt><trkpt lat="45.92999599701954" lon="10.3005293635394"><ele>500.6666666666667</ele><time>2026-05-02T14:16:31.002Z</time></trkpt><trkpt lat="45.92995085074628" lon="10.300466143411986"><ele>500.33333333333337</ele><time>2026-05-02T14:16:32.002Z</time></trkpt><trkpt lat="45.92984408800012" lon="10.300417456879325"><ele>500.0</ele><time>2026-05-02T14:16:34.002Z</time></trkpt><trkpt lat="45.9297796550834" lon="10.300443443069955"><ele>499.6666666666667</ele><time>2026-05-02T14:16:35.002Z</time></trkpt><trkpt lat="45.92970944360144" lon="10.300504861557519"><ele>499.33333333333337</ele><time>2026-05-02T14:16:36.002Z</time></trkpt><trkpt lat="45.92964044019475" lon="10.300573289375029"><ele>499.0</ele><time>2026-05-02T14:16:37.002Z</time></trkpt><trkpt lat="45.929561876919145" lon="10.300644117993164"><ele>499.79999999999995</ele><time>2026-05-02T14:16:38.002Z</time></trkpt><trkpt lat="45.92946262950541" lon="10.300700748740212"><ele>500.59999999999997</ele><time>2026-05-02T14:16:39.002Z</time></trkpt><trkpt lat="45.92937423182303" lon="10.300796831608128"><ele>501.4</ele><time>2026-05-02T14:16:40.002Z</time></trkpt><trkpt lat="45.929279164719304" lon="10.30087503621144"><ele>502.2</ele><time>2026-05-02T14:16:41.002Z</time></trkpt><trkpt lat="45.92918588233902" lon="10.300943429318915"><ele>503.0</ele><time>2026-05-02T14:16:42.002Z</time></trkpt><trkpt lat="45.92909846686024" lon="10.300966373049668"><ele>503.49999999999994</ele><time>2026-05-02T14:16:42.999Z</time></trkpt><trkpt lat="45.929028910577834" lon="10.301015590567335"><ele>504.0</ele><time>2026-05-02T14:16:43.999Z</time></trkpt><trkpt lat="45.928968788622726" lon="10.301065856996956"><ele>504.5</ele><time>2026-05-02T14:16:44.999Z</time></trkpt><trkpt lat="45.928924028391194" lon="10.301143656618061"><ele>505.0</ele><time>2026-05-02T14:16:45.999Z</time></trkpt><trkpt lat="45.92888904495318" lon="10.301249883193341"><ele>505.49999999999994</ele><time>2026-05-02T14:16:46.999Z</time></trkpt><trkpt lat="45.928850896853774" lon="10.301362308661776"><ele>506.0</ele><time>2026-05-02T14:16:47.999Z</time></trkpt><trkpt lat="45.92881265518072" lon="10.30148324211078"><ele>507.20000000000005</ele><time>2026-05-02T14:16:48.999Z</time></trkpt><trkpt lat="45.928773821663874" lon="10.301614499381438"><ele>508.40000000000003</ele><time>2026-05-02T14:16:49.999Z</time></trkpt><trkpt lat="45.92874367693595" lon="10.301753099491584"><ele>509.6</ele><time>2026-05-02T14:16:50.999Z</time></trkpt><trkpt lat="45.92872722030435" lon="10.301902492511523"><ele>510.8</ele><time>2026-05-02T14:16:51.999Z</time></trkpt><trkpt lat="45.928732841846454" lon="10.302054762534985"><ele>512.0</ele><time>2026-05-02T14:16:52.999Z</time></trkpt><trkpt lat="45.92874766830752" lon="10.30221465403359"><ele>513.75</ele><time>2026-05-02T14:16:53.999Z</time></trkpt><trkpt lat="45.928752746730616" lon="10.302379811170582"><ele>515.5</ele><time>2026-05-02T14:16:54.999Z</time></trkpt><trkpt lat="45.9287611406079" lon="10.302554305947115"><ele>517.25</ele><time>2026-05-02T14:16:55.999Z</time></trkpt><trkpt lat="45.92877059462853" lon="10.302732358680856"><ele>519.0</ele><time>2026-05-02T14:16:56.999Z</time></trkpt><trkpt lat="45.92878413931355" lon="10.30291380184902"><ele>520.5</ele><time>2026-05-02T14:16:57.999Z</time></trkpt><trkpt lat="45.92879389338253" lon="10.303099904784117"><ele>522.0</ele><time>2026-05-02T14:16:58.999Z</time></trkpt><trkpt lat="45.928813413282995" lon="10.303282608665299"><ele>523.5</ele><time>2026-05-02T14:16:59.999Z</time></trkpt><trkpt lat="45.92883187353556" lon="10.303454668986129"><ele>525.0</ele><time>2026-05-02T14:17:00.999Z</time></trkpt><trkpt lat="45.928850414110265" lon="10.303621392316217"><ele>525.0</ele><time>2026-05-02T14:17:01.999Z</time></trkpt><trkpt lat="45.92886481130828" lon="10.303768576853795"><ele>525.0</ele><time>2026-05-02T14:17:03Z</time></trkpt><trkpt lat="45.92886592374774" lon="10.303915868517734"><ele>525.0</ele><time>2026-05-02T14:17:04Z</time></trkpt><trkpt lat="45.92885520463109" lon="10.304069772135836"><ele>525.0</ele><time>2026-05-02T14:17:05Z</time></trkpt><trkpt lat="45.92884302230455" lon="10.304215885000348"><ele>525.0</ele><time>2026-05-02T14:17:06Z</time></trkpt><trkpt lat="45.928828815780186" lon="10.30437768285502"><ele>526.2</ele><time>2026-05-02T14:17:07Z</time></trkpt><trkpt lat="45.92881303780905" lon="10.304548218620065"><ele>527.4</ele><time>2026-05-02T14:17:08Z</time></trkpt><trkpt lat="45.928806958078226" lon="10.304708016776475"><ele>528.6</ele><time>2026-05-02T14:17:09Z</time></trkpt><trkpt lat="45.92880329245306" lon="10.304858036026777"><ele>529.8</ele><time>2026-05-02T14:17:10Z</time></trkpt><trkpt lat="45.928810984322986" lon="10.304992581925074"><ele>531.0</ele><time>2026-05-02T14:17:11Z</time></trkpt><trkpt lat="45.92882630481838" lon="10.305120463147873"><ele>533.2</ele><time>2026-05-02T14:17:12Z</time></trkpt><trkpt lat="45.928845048175184" lon="10.305234963290085"><ele>535.4000000000001</ele><time>2026-05-02T14:17:13Z</time></trkpt><trkpt lat="45.928853839305496" lon="10.305336162816308"><ele>537.6</ele><time>2026-05-02T14:17:14Z</time></trkpt><trkpt lat="45.92883702654219" lon="10.305500172818192"><ele>539.8000000000001</ele><time>2026-05-02T14:17:16Z</time></trkpt><trkpt lat="45.928764636394945" lon="10.305586136249477"><ele>542.0</ele><time>2026-05-02T14:17:18Z</time></trkpt><trkpt lat="45.92869056872675" lon="10.305693866870302"><ele>543.1666666666666</ele><time>2026-05-02T14:17:20Z</time></trkpt><trkpt lat="45.92866068439318" lon="10.305775634670946"><ele>544.3333333333333</ele><time>2026-05-02T14:17:21Z</time></trkpt><trkpt lat="45.92862725299964" lon="10.305873897543187"><ele>545.5</ele><time>2026-05-02T14:17:22Z</time></trkpt><trkpt lat="45.928593224103814" lon="10.305972592287043"><ele>546.6666666666666</ele><time>2026-05-02T14:17:23Z</time></trkpt><trkpt lat="45.928556098163526" lon="10.306072641177437"><ele>547.8333333333334</ele><time>2026-05-02T14:17:24Z</time></trkpt><trkpt lat="45.92851666274501" lon="10.306179287999658"><ele>549.0</ele><time>2026-05-02T14:17:25Z</time></trkpt><trkpt lat="45.928492015931894" lon="10.306313348910171"><ele>550.5</ele><time>2026-05-02T14:17:26Z</time></trkpt><trkpt lat="45.928445675120564" lon="10.306452102849924"><ele>552.0</ele><time>2026-05-02T14:17:27Z</time></trkpt><trkpt lat="45.92844601645802" lon="10.306623055226781"><ele>553.5</ele><time>2026-05-02T14:17:28Z</time></trkpt><trkpt lat="45.92842977200994" lon="10.306781149986708"><ele>555.0</ele><time>2026-05-02T14:17:29Z</time></trkpt><trkpt lat="45.92841059721977" lon="10.30694782955932"><ele>556.75</ele><time>2026-05-02T14:17:30Z</time></trkpt><trkpt lat="45.92839064618049" lon="10.307120665590132"><ele>558.5</ele><time>2026-05-02T14:17:31Z</time></trkpt><trkpt lat="45.92836912308959" lon="10.307286346038001"><ele>560.25</ele><time>2026-05-02T14:17:32Z</time></trkpt><trkpt lat="45.92835217135027" lon="10.307453434947284"><ele>562.0</ele><time>2026-05-02T14:17:33Z</time></trkpt><trkpt lat="45.928337707282836" lon="10.30761731579838"><ele>563.0</ele><time>2026-05-02T14:17:34Z</time></trkpt><trkpt lat="45.928309196698756" lon="10.307778257670773"><ele>564.0</ele><time>2026-05-02T14:17:35Z</time></trkpt><trkpt lat="45.9282626514433" lon="10.307925717441979"><ele>565.0</ele><time>2026-05-02T14:17:36Z</time></trkpt><trkpt lat="45.92820537951264" lon="10.308062034366385"><ele>566.0</ele><time>2026-05-02T14:17:37Z</time></trkpt><trkpt lat="45.928144434480735" lon="10.308190112464175"><ele>567.0</ele><time>2026-05-02T14:17:38Z</time></trkpt><trkpt lat="45.92807930885746" lon="10.308305754070439"><ele>568.3333333333334</ele><time>2026-05-02T14:17:39Z</time></trkpt><trkpt lat="45.928036822869146" lon="10.308421294122429"><ele>569.6666666666666</ele><time>2026-05-02T14:17:40Z</time></trkpt><trkpt lat="45.928012390676315" lon="10.308542444752213"><ele>571.0</ele><time>2026-05-02T14:17:41.001Z</time></trkpt><trkpt lat="45.92798842639484" lon="10.308663851172911"><ele>572.3333333333333</ele><time>2026-05-02T14:17:42.001Z</time></trkpt><trkpt lat="45.927938598487295" lon="10.308763818371789"><ele>573.6666666666666</ele><time>2026-05-02T14:17:43.001Z</time></trkpt><trkpt lat="45.92790524920075" lon="10.308866301785391"><ele>575.0</ele><time>2026-05-02T14:17:44.001Z</time></trkpt><trkpt lat="45.927872395070956" lon="10.308964538191496"><ele>577.0</ele><time>2026-05-02T14:17:45.001Z</time></trkpt><trkpt lat="45.92785392800758" lon="10.30907297638195"><ele>579.0</ele><time>2026-05-02T14:17:46.001Z</time></trkpt><trkpt lat="45.92785954778008" lon="10.309178765452867"><ele>581.0</ele><time>2026-05-02T14:17:47.001Z</time></trkpt><trkpt lat="45.927867435126565" lon="10.309341501515544"><ele>583.0</ele><time>2026-05-02T14:17:49.001Z</time></trkpt><trkpt lat="45.92787692180338" lon="10.309478580898864"><ele>585.0</ele><time>2026-05-02T14:17:51.001Z</time></trkpt><trkpt lat="45.92788636115339" lon="10.309631914164948"><ele>587.5</ele><time>2026-05-02T14:17:53.001Z</time></trkpt><trkpt lat="45.927903499215454" lon="10.309785608951515"><ele>590.0</ele><time>2026-05-02T14:17:55.001Z</time></trkpt><trkpt lat="45.9279182178339" lon="10.309944582267388"><ele>592.5</ele><time>2026-05-02T14:17:57.001Z</time></trkpt><trkpt lat="45.92795282165265" lon="10.310104679445043"><ele>595.0</ele><time>2026-05-02T14:17:59.001Z</time></trkpt><trkpt lat="45.92798831155556" lon="10.310272551616498"><ele>595.0</ele><time>2026-05-02T14:18:01.001Z</time></trkpt><trkpt lat="45.92801539863566" lon="10.31039393198424"><ele>595.0</ele><time>2026-05-02T14:18:03.001Z</time></trkpt><trkpt lat="45.92802971389365" lon="10.310527310846936"><ele>595.0</ele><time>2026-05-02T14:18:05.001Z</time></trkpt><trkpt lat="45.928024723581785" lon="10.3106710195319"><ele>595.0</ele><time>2026-05-02T14:18:07.001Z</time></trkpt><trkpt lat="45.92803702809382" lon="10.310834714777263"><ele>595.0</ele><time>2026-05-02T14:18:09.001Z</time></trkpt><trkpt lat="45.92805881071282" lon="10.310997112660436"><ele>598.4</ele><time>2026-05-02T14:18:11.001Z</time></trkpt><trkpt lat="45.92808099469738" lon="10.311156856495085"><ele>601.8</ele><time>2026-05-02T14:18:13.001Z</time></trkpt><trkpt lat="45.92811335306991" lon="10.311326863636463"><ele>605.2</ele><time>2026-05-02T14:18:15.001Z</time></trkpt><trkpt lat="45.92813719372104" lon="10.311478688805659"><ele>608.6</ele><time>2026-05-02T14:18:17.001Z</time></trkpt><trkpt lat="45.92814904194538" lon="10.311598744798754"><ele>612.0</ele><time>2026-05-02T14:18:19.001Z</time></trkpt><trkpt lat="45.92814055879188" lon="10.311734712817257"><ele>614.3333333333334</ele><time>2026-05-02T14:18:21.001Z</time></trkpt><trkpt lat="45.928068362220394" lon="10.311830225581128"><ele>616.6666666666666</ele><time>2026-05-02T14:18:23.001Z</time></trkpt><trkpt lat="45.927975928605356" lon="10.31185367914765"><ele>619.0</ele><time>2026-05-02T14:18:25.001Z</time></trkpt><trkpt lat="45.927895333579784" lon="10.311828914889995"><ele>621.3333333333333</ele><time>2026-05-02T14:18:27.001Z</time></trkpt><trkpt lat="45.92782211704077" lon="10.31181762049452"><ele>623.6666666666666</ele><time>2026-05-02T14:18:30.001Z</time></trkpt><trkpt lat="45.92774811534164" lon="10.311718953960865"><ele>626.0</ele><time>2026-05-02T14:18:36.002Z</time></trkpt><trkpt lat="45.92767896893884" lon="10.311690771049427"><ele>626.0</ele><time>2026-05-02T14:18:40.002Z</time></trkpt><trkpt lat="45.92760706557651" lon="10.311657996180156"><ele>626.0</ele><time>2026-05-02T14:18:59.999Z</time></trkpt><trkpt lat="45.927541393504775" lon="10.31161069493571"><ele>626.0</ele><time>2026-05-02T14:19:05.999Z</time></trkpt><trkpt lat="45.927488632617624" lon="10.3115579719341"><ele>626.0</ele><time>2026-05-02T14:19:07.999Z</time></trkpt><trkpt lat="45.927418434821924" lon="10.31148945246708"><ele>626.0</ele><time>2026-05-02T14:19:10Z</time></trkpt><trkpt lat="45.9273172871122" lon="10.311448114418603"><ele>626.0</ele><time>2026-05-02T14:19:12Z</time></trkpt><trkpt lat="45.92720401228252" lon="10.31142215361048"><ele>628.1428571428571</ele><time>2026-05-02T14:19:14Z</time></trkpt><trkpt lat="45.92713897590678" lon="10.311422770894925"><ele>630.2857142857143</ele><time>2026-05-02T14:19:15Z</time></trkpt><trkpt lat="45.927069009437815" lon="10.311422365486102"><ele>632.4285714285714</ele><time>2026-05-02T14:19:16Z</time></trkpt><trkpt lat="45.92699855453941" lon="10.311422728947276"><ele>634.5714285714286</ele><time>2026-05-02T14:19:17Z</time></trkpt><trkpt lat="45.92692774724258" lon="10.311434295723616"><ele>636.7142857142857</ele><time>2026-05-02T14:19:18Z</time></trkpt><trkpt lat="45.92685570437208" lon="10.31144557031857"><ele>638.8571428571429</ele><time>2026-05-02T14:19:19Z</time></trkpt><trkpt lat="45.92678342446246" lon="10.31145296362307"><ele>641.0</ele><time>2026-05-02T14:19:20Z</time></trkpt><trkpt lat="45.92671076174563" lon="10.311464335531308"><ele>643.8571428571429</ele><time>2026-05-02T14:19:21Z</time></trkpt><trkpt lat="45.92664104089786" lon="10.311476069248318"><ele>646.7142857142857</ele><time>2026-05-02T14:19:22Z</time></trkpt><trkpt lat="45.92656933101564" lon="10.311486720820797"><ele>649.5714285714286</ele><time>2026-05-02T14:19:23Z</time></trkpt><trkpt lat="45.9265038034049" lon="10.31149429755002"><ele>652.4285714285714</ele><time>2026-05-02T14:19:24Z</time></trkpt><trkpt lat="45.92643064603964" lon="10.311514637917899"><ele>655.2857142857143</ele><time>2026-05-02T14:19:25Z</time></trkpt><trkpt lat="45.926356563571396" lon="10.311529839430762"><ele>658.1428571428571</ele><time>2026-05-02T14:19:26Z</time></trkpt><trkpt lat="45.9262843808023" lon="10.311545614876911"><ele>661.0</ele><time>2026-05-02T14:19:27Z</time></trkpt><trkpt lat="45.92621267458381" lon="10.311565509088087"><ele>661.0</ele><time>2026-05-02T14:19:28Z</time></trkpt><trkpt lat="45.926145789048704" lon="10.311577119485058"><ele>661.0</ele><time>2026-05-02T14:19:29Z</time></trkpt><trkpt lat="45.926029782609874" lon="10.311614894097762"><ele>661.0</ele><time>2026-05-02T14:19:31Z</time></trkpt><trkpt lat="45.925913940412656" lon="10.311623833291522"><ele>661.0</ele><time>2026-05-02T14:19:33Z</time></trkpt><trkpt lat="45.92578565777869" lon="10.311615868345033"><ele>661.0</ele><time>2026-05-02T14:19:35Z</time></trkpt><trkpt lat="45.92572593960049" lon="10.311582971319167"><ele>664.8</ele><time>2026-05-02T14:19:36Z</time></trkpt><trkpt lat="45.92562615493528" lon="10.311565202273675"><ele>668.5999999999999</ele><time>2026-05-02T14:19:38Z</time></trkpt><trkpt lat="45.925517537240054" lon="10.311534160818047"><ele>672.4</ele><time>2026-05-02T14:19:40Z</time></trkpt><trkpt lat="45.9254508581388" lon="10.311422662257167"><ele>676.2</ele><time>2026-05-02T14:19:42Z</time></trkpt><trkpt lat="45.92535360888644" lon="10.311336779172462"><ele>680.0</ele><time>2026-05-02T14:19:44.001Z</time></trkpt><trkpt lat="45.92525075372265" lon="10.311221527063704"><ele>683.5</ele><time>2026-05-02T14:19:46.001Z</time></trkpt><trkpt lat="45.92515105793592" lon="10.311155161668644"><ele>687.0</ele><time>2026-05-02T14:19:48.001Z</time></trkpt><trkpt lat="45.92508250004284" lon="10.311071154488113"><ele>690.5</ele><time>2026-05-02T14:19:50.001Z</time></trkpt><trkpt lat="45.9250093522064" lon="10.311044086603896"><ele>694.0</ele><time>2026-05-02T14:19:52.001Z</time></trkpt><trkpt lat="45.92493919141326" lon="10.311000781360312"><ele>697.5</ele><time>2026-05-02T14:19:54.001Z</time></trkpt><trkpt lat="45.92486897562522" lon="10.31095303739471"><ele>701.0</ele><time>2026-05-02T14:19:56.001Z</time></trkpt><trkpt lat="45.92479277288004" lon="10.31093004431008"><ele>702.3333333333333</ele><time>2026-05-02T14:19:58.001Z</time></trkpt><trkpt lat="45.92472690334026" lon="10.310935588895159"><ele>703.6666666666666</ele><time>2026-05-02T14:20:00.001Z</time></trkpt><trkpt lat="45.92464947443402" lon="10.310891341654314"><ele>705.0</ele><time>2026-05-02T14:20:02.001Z</time></trkpt><trkpt lat="45.9245797075973" lon="10.310863636728444"><ele>706.3333333333334</ele><time>2026-05-02T14:20:04.001Z</time></trkpt><trkpt lat="45.9244951963168" lon="10.310830363668623"><ele>707.6666666666667</ele><time>2026-05-02T14:20:06.001Z</time></trkpt><trkpt lat="45.924387876368314" lon="10.310806867836249"><ele>709.0</ele><time>2026-05-02T14:20:08.001Z</time></trkpt><trkpt lat="45.92431528508832" lon="10.310812782964693"><ele>711.3333333333334</ele><time>2026-05-02T14:20:09.001Z</time></trkpt><trkpt lat="45.92420182947556" lon="10.310828680462226"><ele>713.6666666666667</ele><time>2026-05-02T14:20:11.001Z</time></trkpt><trkpt lat="45.92412793609027" lon="10.31081972965919"><ele>716.0</ele><time>2026-05-02T14:20:13.001Z</time></trkpt><trkpt lat="45.924035188867485" lon="10.310788927515919"><ele>718.3333333333334</ele><time>2026-05-02T14:20:16.001Z</time></trkpt><trkpt lat="45.92396808063769" lon="10.310755919383581"><ele>720.6666666666666</ele><time>2026-05-02T14:20:20.001Z</time></trkpt><trkpt lat="45.923900154636925" lon="10.310725329770618"><ele>723.0</ele><time>2026-05-02T14:20:22.001Z</time></trkpt><trkpt lat="45.92382916982014" lon="10.310656852642145"><ele>723.0000000000001</ele><time>2026-05-02T14:20:25.001Z</time></trkpt><trkpt lat="45.92377630771249" lon="10.310599593316727"><ele>723.0</ele><time>2026-05-02T14:20:27.001Z</time></trkpt><trkpt lat="45.92372128801885" lon="10.310535342391098"><ele>723.0</ele><time>2026-05-02T14:20:29.002Z</time></trkpt><trkpt lat="45.9236600187541" lon="10.310491792404106"><ele>723.0</ele><time>2026-05-02T14:20:31.002Z</time></trkpt><trkpt lat="45.92359421299379" lon="10.310462051004842"><ele>723.0</ele><time>2026-05-02T14:20:33.002Z</time></trkpt><trkpt lat="45.923520882052415" lon="10.310426322590526"><ele>723.0000000000001</ele><time>2026-05-02T14:20:36.002Z</time></trkpt><trkpt lat="45.923437683588105" lon="10.310356702443006"><ele>723.0</ele><time>2026-05-02T14:20:39.002Z</time></trkpt><trkpt lat="45.92337675157887" lon="10.310318660035385"><ele>725.3333333333334</ele><time>2026-05-02T14:20:42.002Z</time></trkpt><trkpt lat="45.92330098915771" lon="10.310263338099064"><ele>727.6666666666666</ele><time>2026-05-02T14:20:44.002Z</time></trkpt><trkpt lat="45.92324356893932" lon="10.310208315823406"><ele>730.0</ele><time>2026-05-02T14:20:46.002Z</time></trkpt><trkpt lat="45.92317178335929" lon="10.310138096467467"><ele>732.3333333333333</ele><time>2026-05-02T14:20:49.002Z</time></trkpt><trkpt lat="45.92310861076067" lon="10.310079074989716"><ele>734.6666666666666</ele><time>2026-05-02T14:20:52.002Z</time></trkpt><trkpt lat="45.92305671899933" lon="10.31001940764617"><ele>737.0</ele><time>2026-05-02T14:20:54.002Z</time></trkpt><trkpt lat="45.92300660464149" lon="10.30994305867839"><ele>737.0</ele><time>2026-05-02T14:20:55.997Z</time></trkpt><trkpt lat="45.92294319954264" lon="10.309887396566195"><ele>737.0</ele><time>2026-05-02T14:20:57.997Z</time></trkpt><trkpt lat="45.92287841735797" lon="10.309836510978208"><ele>737.0</ele><time>2026-05-02T14:20:59.997Z</time></trkpt><trkpt lat="45.92280299523796" lon="10.309820450562576"><ele>737.0</ele><time>2026-05-02T14:21:01.997Z</time></trkpt><trkpt lat="45.9227379031523" lon="10.309774210741843"><ele>737.0</ele><time>2026-05-02T14:21:03.997Z</time></trkpt><trkpt lat="45.92266577685045" lon="10.30973327149978"><ele>737.0</ele><time>2026-05-02T14:21:05.997Z</time></trkpt><trkpt lat="45.922591069195924" lon="10.309699156014432"><ele>737.0</ele><time>2026-05-02T14:21:07.997Z</time></trkpt><trkpt lat="45.922519628187516" lon="10.309690062959945"><ele>737.0</ele><time>2026-05-02T14:21:09.997Z</time></trkpt><trkpt lat="45.92245045551065" lon="10.309701940535906"><ele>737.0</ele><time>2026-05-02T14:21:11.998Z</time></trkpt><trkpt lat="45.92237111766433" lon="10.309717671664707"><ele>737.0</ele><time>2026-05-02T14:21:14.998Z</time></trkpt><trkpt lat="45.92229025760793" lon="10.30970896629276"><ele>737.0</ele><time>2026-05-02T14:21:17.998Z</time></trkpt><trkpt lat="45.92220143893812" lon="10.309724826265862"><ele>737.0</ele><time>2026-05-02T14:21:20.998Z</time></trkpt><trkpt lat="45.9221220172067" lon="10.309714255714384"><ele>737.0</ele><time>2026-05-02T14:22:01Z</time></trkpt><trkpt lat="45.92202746130277" lon="10.30968721551788"><ele>737.0</ele><time>2026-05-02T14:22:04Z</time></trkpt><trkpt lat="45.921961684966824" lon="10.30969231006386"><ele>737.0</ele><time>2026-05-02T14:22:06Z</time></trkpt><trkpt lat="45.92188330968385" lon="10.309667196985883"><ele>737.0</ele><time>2026-05-02T14:22:09Z</time></trkpt><trkpt lat="45.92182027086207" lon="10.309656517676238"><ele>737.0</ele><time>2026-05-02T14:22:12Z</time></trkpt><trkpt lat="45.921750564667455" lon="10.309619497209672"><ele>737.0</ele><time>2026-05-02T14:22:15.001Z</time></trkpt><trkpt lat="45.92166255023034" lon="10.309601344468032"><ele>740.1428571428572</ele><time>2026-05-02T14:22:18.001Z</time></trkpt><trkpt lat="45.921604570941376" lon="10.309523985564315"><ele>743.2857142857143</ele><time>2026-05-02T14:22:20.001Z</time></trkpt><trkpt lat="45.92153701281364" lon="10.309518075594196"><ele>746.4285714285714</ele><time>2026-05-02T14:22:22.001Z</time></trkpt><trkpt lat="45.92147393586262" lon="10.309520403058723"><ele>749.5714285714287</ele><time>2026-05-02T14:22:24.001Z</time></trkpt><trkpt lat="45.921380851768795" lon="10.309524768910606"><ele>752.7142857142857</ele><time>2026-05-02T14:22:27.001Z</time></trkpt><trkpt lat="45.921316903115745" lon="10.309525853482645"><ele>755.8571428571429</ele><time>2026-05-02T14:22:29.001Z</time></trkpt><trkpt lat="45.92124650388577" lon="10.309525853488047"><ele>759.0</ele><time>2026-05-02T14:22:33.001Z</time></trkpt><trkpt lat="45.92117590179163" lon="10.309540045130131"><ele>759.0</ele><time>2026-05-02T14:22:36.001Z</time></trkpt><trkpt lat="45.92111060818278" lon="10.309493189485059"><ele>759.0</ele><time>2026-05-02T14:22:40.001Z</time></trkpt><trkpt lat="45.921044431035206" lon="10.309454720139463"><ele>759.0</ele><time>2026-05-02T14:22:43.001Z</time></trkpt><trkpt lat="45.92098149878169" lon="10.30944307931747"><ele>759.0</ele><time>2026-05-02T14:22:46.001Z</time></trkpt><trkpt lat="45.92090009978753" lon="10.309402507003295"><ele>759.0</ele><time>2026-05-02T14:22:50.002Z</time></trkpt><trkpt lat="45.920829308940384" lon="10.309362947420768"><ele>759.0</ele><time>2026-05-02T14:22:53.002Z</time></trkpt><trkpt lat="45.92076465008182" lon="10.309327868472606"><ele>759.0</ele><time>2026-05-02T14:22:56.002Z</time></trkpt><trkpt lat="45.92070171408758" lon="10.309297632542382"><ele>764.1666666666666</ele><time>2026-05-02T14:22:58.002Z</time></trkpt><trkpt lat="45.920622461721344" lon="10.309259939035682"><ele>769.3333333333333</ele><time>2026-05-02T14:23:01Z</time></trkpt><trkpt lat="45.920545346608655" lon="10.309248407582558"><ele>774.5</ele><time>2026-05-02T14:23:04Z</time></trkpt><trkpt lat="45.92047558982448" lon="10.309211773704403"><ele>779.6666666666666</ele><time>2026-05-02T14:23:07Z</time></trkpt><trkpt lat="45.92040128030313" lon="10.309164256051917"><ele>784.8333333333333</ele><time>2026-05-02T14:23:09Z</time></trkpt><trkpt lat="45.92031714344209" lon="10.309144836944347"><ele>790.0</ele><time>2026-05-02T14:23:12Z</time></trkpt><trkpt lat="45.92025520078313" lon="10.3091192342498"><ele>789.9999999999999</ele><time>2026-05-02T14:23:14Z</time></trkpt><trkpt lat="45.92017493412153" lon="10.309121778272072"><ele>790.0</ele><time>2026-05-02T14:23:17Z</time></trkpt><trkpt lat="45.92010394116786" lon="10.30914525171928"><ele>790.0</ele><time>2026-05-02T14:23:20Z</time></trkpt><trkpt lat="45.92003994386913" lon="10.30915139418063"><ele>790.0</ele><time>2026-05-02T14:23:22Z</time></trkpt><trkpt lat="45.91996380935393" lon="10.309142079448268"><ele>789.9999999999999</ele><time>2026-05-02T14:23:24Z</time></trkpt><trkpt lat="45.91989004437275" lon="10.309115519942848"><ele>790.0</ele><time>2026-05-02T14:23:26.001Z</time></trkpt><trkpt lat="45.91979908721219" lon="10.309107924382618"><ele>793.1666666666666</ele><time>2026-05-02T14:23:29.001Z</time></trkpt><trkpt lat="45.91971803976114" lon="10.309095807706102"><ele>796.3333333333333</ele><time>2026-05-02T14:23:32.001Z</time></trkpt><trkpt lat="45.91962927440742" lon="10.309078988791907"><ele>799.5</ele><time>2026-05-02T14:23:35.001Z</time></trkpt><trkpt lat="45.91954262456005" lon="10.30905416907167"><ele>802.6666666666667</ele><time>2026-05-02T14:23:38.001Z</time></trkpt><trkpt lat="45.91947890504379" lon="10.309029453868806"><ele>805.8333333333334</ele><time>2026-05-02T14:23:41.001Z</time></trkpt><trkpt lat="45.9194058507279" lon="10.308999522242548"><ele>809.0</ele><time>2026-05-02T14:23:44.001Z</time></trkpt><trkpt lat="45.919327682194435" lon="10.308967789896876"><ele>809.0</ele><time>2026-05-02T14:23:47.001Z</time></trkpt><trkpt lat="45.91924519455601" lon="10.30894312613281"><ele>809.0</ele><time>2026-05-02T14:23:50.001Z</time></trkpt><trkpt lat="45.91917919998811" lon="10.308933832600568"><ele>809.0</ele><time>2026-05-02T14:23:52.001Z</time></trkpt><trkpt lat="45.91911377571434" lon="10.308930255616255"><ele>809.0</ele><time>2026-05-02T14:23:54.001Z</time></trkpt><trkpt lat="45.91903832747324" lon="10.308936186128868"><ele>809.0</ele><time>2026-05-02T14:23:57.001Z</time></trkpt><trkpt lat="45.91896335998306" lon="10.308944782624236"><ele>809.0</ele><time>2026-05-02T14:24:00.001Z</time></trkpt><trkpt lat="45.9188810553087" lon="10.308954927715392"><ele>809.0</ele><time>2026-05-02T14:24:04.002Z</time></trkpt><trkpt lat="45.91881026201677" lon="10.308967126295709"><ele>811.6666666666667</ele><time>2026-05-02T14:24:07.002Z</time></trkpt><trkpt lat="45.91872942018979" lon="10.308988270028838"><ele>814.3333333333334</ele><time>2026-05-02T14:24:11.002Z</time></trkpt><trkpt lat="45.91865641744914" lon="10.309016168787572"><ele>817.0</ele><time>2026-05-02T14:24:14.002Z</time></trkpt><trkpt lat="45.91857830761721" lon="10.309058487333"><ele>819.6666666666667</ele><time>2026-05-02T14:24:17.002Z</time></trkpt><trkpt lat="45.918516527929015" lon="10.309105585962428"><ele>822.3333333333334</ele><time>2026-05-02T14:24:20.002Z</time></trkpt><trkpt lat="45.918428914532456" lon="10.309124512897489"><ele>825.0</ele><time>2026-05-02T14:24:23.002Z</time></trkpt><trkpt lat="45.91837647641055" lon="10.309180712388951"><ele>825.0</ele><time>2026-05-02T14:24:27.002Z</time></trkpt><trkpt lat="45.9183039934878" lon="10.309247972699307"><ele>825.0</ele><time>2026-05-02T14:24:30.002Z</time></trkpt><trkpt lat="45.91828226369012" lon="10.30933319859801"><ele>825.0</ele><time>2026-05-02T14:24:32.002Z</time></trkpt><trkpt lat="45.91824712006564" lon="10.309461850582114"><ele>825.0</ele><time>2026-05-02T14:24:35.002Z</time></trkpt><trkpt lat="45.91820232768186" lon="10.309551561684433"><ele>825.0</ele><time>2026-05-02T14:24:37.002Z</time></trkpt><trkpt lat="45.91816112362392" lon="10.309646369988473"><ele>825.0</ele><time>2026-05-02T14:24:40.003Z</time></trkpt><trkpt lat="45.91812899981585" lon="10.309753399115744"><ele>829.4285714285714</ele><time>2026-05-02T14:24:45.003Z</time></trkpt><trkpt lat="45.918099757200814" lon="10.309835204381775"><ele>833.8571428571429</ele><time>2026-05-02T14:24:47.003Z</time></trkpt><trkpt lat="45.91804533177003" lon="10.309921258214407"><ele>838.2857142857143</ele><time>2026-05-02T14:24:50.003Z</time></trkpt><trkpt lat="45.91799120012372" lon="10.309993268859703"><ele>842.7142857142858</ele><time>2026-05-02T14:24:53.003Z</time></trkpt><trkpt lat="45.91793581880266" lon="10.310039177794103"><ele>847.1428571428571</ele><time>2026-05-02T14:25:08.002Z</time></trkpt><trkpt lat="45.91788387619913" lon="10.310126120682547"><ele>851.5714285714287</ele><time>2026-05-02T14:25:15.002Z</time></trkpt><trkpt lat="45.9178529015791" lon="10.310237144228957"><ele>856.0</ele><time>2026-05-02T14:25:34.001Z</time></trkpt><trkpt lat="45.91777784002585" lon="10.310322545388205"><ele>855.9999999999999</ele><time>2026-05-02T14:25:37Z</time></trkpt><trkpt lat="45.917750733145674" lon="10.310412516345714"><ele>856.0</ele><time>2026-05-02T14:25:40Z</time></trkpt><trkpt lat="45.917711216798594" lon="10.310488454419712"><ele>856.0</ele><time>2026-05-02T14:25:42Z</time></trkpt><trkpt lat="45.91765888901183" lon="10.31055603833189"><ele>856.0</ele><time>2026-05-02T14:25:45Z</time></trkpt><trkpt lat="45.917586129133205" lon="10.3105950488569"><ele>855.9999999999999</ele><time>2026-05-02T14:25:48Z</time></trkpt><trkpt lat="45.917517149864054" lon="10.310684957109391"><ele>856.0</ele><time>2026-05-02T14:25:51Z</time></trkpt><trkpt lat="45.917439033276224" lon="10.310714997813449"><ele>857.6666666666666</ele><time>2026-05-02T14:25:54Z</time></trkpt><trkpt lat="45.91737577672836" lon="10.310765748729754"><ele>859.3333333333333</ele><time>2026-05-02T14:25:57Z</time></trkpt><trkpt lat="45.917318981006474" lon="10.310827898306465"><ele>861.0</ele><time>2026-05-02T14:26:00Z</time></trkpt><trkpt lat="45.91726023146944" lon="10.310898922778621"><ele>862.6666666666667</ele><time>2026-05-02T14:26:03Z</time></trkpt><trkpt lat="45.91720714023195" lon="10.310975633271784"><ele>864.3333333333334</ele><time>2026-05-02T14:26:07Z</time></trkpt><trkpt lat="45.91713133551665" lon="10.311017533577779"><ele>866.0</ele><time>2026-05-02T14:26:09Z</time></trkpt><trkpt lat="45.91706675724249" lon="10.311093205470428"><ele>866.0000000000001</ele><time>2026-05-02T14:26:11Z</time></trkpt><trkpt lat="45.91699797392577" lon="10.311166188506805"><ele>866.0</ele><time>2026-05-02T14:26:13Z</time></trkpt><trkpt lat="45.9169632611371" lon="10.31124851235165"><ele>866.0</ele><time>2026-05-02T14:26:15Z</time></trkpt><trkpt lat="45.91695775877574" lon="10.311392756069317"><ele>866.0</ele><time>2026-05-02T14:26:18Z</time></trkpt><trkpt lat="45.9169550944092" lon="10.311505286221841"><ele>866.0000000000001</ele><time>2026-05-02T14:26:20Z</time></trkpt><trkpt lat="45.91695919137289" lon="10.311598767881623"><ele>866.0</ele><time>2026-05-02T14:26:22.001Z</time></trkpt><trkpt lat="45.91695073132502" lon="10.311699577622509"><ele>870.5000000000001</ele><time>2026-05-02T14:26:24.001Z</time></trkpt><trkpt lat="45.91694916914957" lon="10.31179473306605"><ele>875.0</ele><time>2026-05-02T14:26:26.001Z</time></trkpt><trkpt lat="45.91693099058889" lon="10.31190133023517"><ele>879.5</ele><time>2026-05-02T14:26:28.001Z</time></trkpt><trkpt lat="45.916912539748424" lon="10.312009204326296"><ele>884.0</ele><time>2026-05-02T14:26:31.001Z</time></trkpt><trkpt lat="45.91686396067604" lon="10.312099953636372"><ele>888.5000000000001</ele><time>2026-05-02T14:26:34.001Z</time></trkpt><trkpt lat="45.91682145729555" lon="10.312181061476972"><ele>893.0</ele><time>2026-05-02T14:26:36.001Z</time></trkpt><trkpt lat="45.91677711520476" lon="10.312281248886634"><ele>892.5714285714286</ele><time>2026-05-02T14:26:39.001Z</time></trkpt><trkpt lat="45.91672602424186" lon="10.312373064178718"><ele>892.1428571428571</ele><time>2026-05-02T14:26:42.001Z</time></trkpt><trkpt lat="45.91667749329077" lon="10.312447424687813"><ele>891.7142857142858</ele><time>2026-05-02T14:26:44.001Z</time></trkpt><trkpt lat="45.916636403859954" lon="10.312517984612873"><ele>891.2857142857142</ele><time>2026-05-02T14:26:46.001Z</time></trkpt><trkpt lat="45.91660192614256" lon="10.312608455916404"><ele>890.8571428571428</ele><time>2026-05-02T14:26:49.001Z</time></trkpt><trkpt lat="45.916562194194704" lon="10.312702839147779"><ele>890.4285714285714</ele><time>2026-05-02T14:26:52.001Z</time></trkpt><trkpt lat="45.9165247742727" lon="10.312795683258908"><ele>890.0</ele><time>2026-05-02T14:26:54.001Z</time></trkpt><trkpt lat="45.9164813002108" lon="10.312879983485283"><ele>890.0000000000001</ele><time>2026-05-02T14:26:56.001Z</time></trkpt><trkpt lat="45.916439352503865" lon="10.312953365696611"><ele>890.0</ele><time>2026-05-02T14:26:58.001Z</time></trkpt><trkpt lat="45.916387590009016" lon="10.31305599761598"><ele>890.0</ele><time>2026-05-02T14:27:01.001Z</time></trkpt><trkpt lat="45.916319621004185" lon="10.313140517229055"><ele>890.0</ele><time>2026-05-02T14:27:04.001Z</time></trkpt><trkpt lat="45.91626919854918" lon="10.313204470580631"><ele>890.0000000000001</ele><time>2026-05-02T14:27:06.001Z</time></trkpt><trkpt lat="45.9162141697653" lon="10.313286250258704"><ele>890.0</ele><time>2026-05-02T14:27:09.001Z</time></trkpt><trkpt lat="45.91615982851947" lon="10.313341877449274"><ele>892.0</ele><time>2026-05-02T14:27:11.001Z</time></trkpt><trkpt lat="45.91611002498254" lon="10.313418090363461"><ele>894.0</ele><time>2026-05-02T14:27:12.999Z</time></trkpt><trkpt lat="45.91609434338336" lon="10.313505909138385"><ele>896.0</ele><time>2026-05-02T14:27:14.999Z</time></trkpt><trkpt lat="45.91608359471738" lon="10.313607522786532"><ele>898.0</ele><time>2026-05-02T14:27:16.999Z</time></trkpt><trkpt lat="45.91605722270122" lon="10.313713626809628"><ele>900.0</ele><time>2026-05-02T14:27:19.999Z</time></trkpt><trkpt lat="45.91602784755399" lon="10.313829897874486"><ele>902.0</ele><time>2026-05-02T14:27:22.999Z</time></trkpt><trkpt lat="45.91598085671852" lon="10.313897730294237"><ele>904.0</ele><time>2026-05-02T14:27:25.999Z</time></trkpt><trkpt lat="45.91592862576051" lon="10.313957463613965"><ele>905.9999999999999</ele><time>2026-05-02T14:27:27.999Z</time></trkpt><trkpt lat="45.9158857545104" lon="10.314064352641733"><ele>908.0</ele><time>2026-05-02T14:27:32Z</time></trkpt><trkpt lat="45.91582523767713" lon="10.314117059750663"><ele>910.0</ele><time>2026-05-02T14:27:36Z</time></trkpt><trkpt lat="45.91575757671098" lon="10.314172285200641"><ele>912.0</ele><time>2026-05-02T14:27:39Z</time></trkpt><trkpt lat="45.91565947308455" lon="10.314205834355187"><ele>913.9999999999999</ele><time>2026-05-02T14:27:42Z</time></trkpt><trkpt lat="45.91561691173096" lon="10.314316400235466"><ele>916.0</ele><time>2026-05-02T14:27:45Z</time></trkpt><trkpt lat="45.91555002408525" lon="10.314367849787743"><ele>915.9999999999999</ele><time>2026-05-02T14:27:47Z</time></trkpt><trkpt lat="45.91549725738758" lon="10.314441550774117"><ele>916.0</ele><time>2026-05-02T14:27:49Z</time></trkpt><trkpt lat="45.915431006320745" lon="10.314561909022455"><ele>916.0</ele><time>2026-05-02T14:27:53Z</time></trkpt><trkpt lat="45.91537684536611" lon="10.314651059988439"><ele>916.0</ele><time>2026-05-02T14:27:57Z</time></trkpt><trkpt lat="45.91532406334531" lon="10.314729151632946"><ele>915.9999999999999</ele><time>2026-05-02T14:27:59Z</time></trkpt><trkpt lat="45.91526961571228" lon="10.314803437545656"><ele>916.0</ele><time>2026-05-02T14:28:01Z</time></trkpt><trkpt lat="45.915209022470705" lon="10.314840601902754"><ele>916.1666666666666</ele><time>2026-05-02T14:28:03Z</time></trkpt><trkpt lat="45.915166217198134" lon="10.314962978363276"><ele>916.3333333333333</ele><time>2026-05-02T14:28:06Z</time></trkpt><trkpt lat="45.91510040106735" lon="10.315034357961162"><ele>916.5</ele><time>2026-05-02T14:28:08Z</time></trkpt><trkpt lat="45.91508099417307" lon="10.315141104022048"><ele>916.6666666666667</ele><time>2026-05-02T14:28:11Z</time></trkpt><trkpt lat="45.915076373523526" lon="10.315247106871151"><ele>916.8333333333334</ele><time>2026-05-02T14:28:16Z</time></trkpt><trkpt lat="45.915090654284754" lon="10.315355014479968"><ele>917.0</ele><time>2026-05-02T14:28:20.001Z</time></trkpt><trkpt lat="45.91506911450689" lon="10.315463853642116"><ele>917.0000000000001</ele><time>2026-05-02T14:28:24.001Z</time></trkpt><trkpt lat="45.91499645533061" lon="10.315511026636313"><ele>917.0</ele><time>2026-05-02T14:28:27.001Z</time></trkpt><trkpt lat="45.91494485170759" lon="10.315646756471018"><ele>917.0</ele><time>2026-05-02T14:28:30.001Z</time></trkpt><trkpt lat="45.91491203699304" lon="10.3157358543647"><ele>917.0</ele><time>2026-05-02T14:28:32.001Z</time></trkpt><trkpt lat="45.91486292284907" lon="10.315804618746503"><ele>917.0000000000001</ele><time>2026-05-02T14:28:34.001Z</time></trkpt><trkpt lat="45.91481714762796" lon="10.315885867489829"><ele>917.0</ele><time>2026-05-02T14:28:36.001Z</time></trkpt><trkpt lat="45.91477414186087" lon="10.31596788087722"><ele>921.8333333333334</ele><time>2026-05-02T14:28:39.001Z</time></trkpt><trkpt lat="45.91469487041356" lon="10.316035569359524"><ele>926.6666666666667</ele><time>2026-05-02T14:28:42.001Z</time></trkpt><trkpt lat="45.91464136068782" lon="10.316100596235984"><ele>931.5</ele><time>2026-05-02T14:28:44.001Z</time></trkpt><trkpt lat="45.91457408854411" lon="10.316190163550889"><ele>936.3333333333333</ele><time>2026-05-02T14:28:47.001Z</time></trkpt><trkpt lat="45.91451975031179" lon="10.316272902103131"><ele>941.1666666666666</ele><time>2026-05-02T14:28:50.001Z</time></trkpt><trkpt lat="45.91446283950285" lon="10.31633977933933"><ele>946.0</ele><time>2026-05-02T14:28:52.001Z</time></trkpt><trkpt lat="45.914391625388895" lon="10.316386766328721"><ele>950.4999999999999</ele><time>2026-05-02T14:28:54.001Z</time></trkpt><trkpt lat="45.914335132618845" lon="10.316431465131611"><ele>955.0</ele><time>2026-05-02T14:28:56.001Z</time></trkpt><trkpt lat="45.91425496024012" lon="10.316470095123089"><ele>959.5</ele><time>2026-05-02T14:28:59.001Z</time></trkpt><trkpt lat="45.914174292059585" lon="10.316541123257368"><ele>964.0</ele><time>2026-05-02T14:29:02.001Z</time></trkpt><trkpt lat="45.91411322295808" lon="10.316610095625107"><ele>968.4999999999999</ele><time>2026-05-02T14:29:05.001Z</time></trkpt><trkpt lat="45.91405736895992" lon="10.316676772811377"><ele>973.0</ele><time>2026-05-02T14:29:07.001Z</time></trkpt><trkpt lat="45.91400510929769" lon="10.316736848499438"><ele>973.0</ele><time>2026-05-02T14:29:09.001Z</time></trkpt><trkpt lat="45.91396101577599" lon="10.31681088924218"><ele>973.0</ele><time>2026-05-02T14:29:12.001Z</time></trkpt><trkpt lat="45.91390505514337" lon="10.316871028882344"><ele>973.0</ele><time>2026-05-02T14:29:15.001Z</time></trkpt><trkpt lat="45.91382914522633" lon="10.316914895907368"><ele>973.0</ele><time>2026-05-02T14:29:18.001Z</time></trkpt><trkpt lat="45.9137776323906" lon="10.316992231405731"><ele>973.0</ele><time>2026-05-02T14:29:22Z</time></trkpt><trkpt lat="45.913731714260706" lon="10.317070078422914"><ele>973.0</ele><time>2026-05-02T14:29:25Z</time></trkpt><trkpt lat="45.9137229031814" lon="10.317172153633495"><ele>973.0</ele><time>2026-05-02T14:29:28Z</time></trkpt><trkpt lat="45.9136712660643" lon="10.317241495586401"><ele>973.8333333333333</ele><time>2026-05-02T14:29:30Z</time></trkpt><trkpt lat="45.913624823767506" lon="10.317337090198897"><ele>974.6666666666666</ele><time>2026-05-02T14:29:32Z</time></trkpt><trkpt lat="45.91357735729213" lon="10.317416438810374"><ele>975.5</ele><time>2026-05-02T14:29:34Z</time></trkpt><trkpt lat="45.913517901496604" lon="10.31748563141731"><ele>976.3333333333333</ele><time>2026-05-02T14:29:37Z</time></trkpt><trkpt lat="45.91345128960554" lon="10.317565560884466"><ele>977.1666666666666</ele><time>2026-05-02T14:29:40Z</time></trkpt><trkpt lat="45.91341297265945" lon="10.317665773045942"><ele>978.0</ele><time>2026-05-02T14:29:43Z</time></trkpt><trkpt lat="45.9133814193262" lon="10.31775296282506"><ele>978.0</ele><time>2026-05-02T14:29:46Z</time></trkpt><trkpt lat="45.91334967543723" lon="10.317848696473167"><ele>978.0</ele><time>2026-05-02T14:29:49Z</time></trkpt><trkpt lat="45.91331481882253" lon="10.317929899165048"><ele>978.0</ele><time>2026-05-02T14:29:52Z</time></trkpt><trkpt lat="45.91328869658164" lon="10.318018212737702"><ele>978.0</ele><time>2026-05-02T14:29:55Z</time></trkpt><trkpt lat="45.91321387372419" lon="10.318103685540352"><ele>978.0</ele><time>2026-05-02T14:29:59Z</time></trkpt><trkpt lat="45.91313709001172" lon="10.318138617988042"><ele>978.0</ele><time>2026-05-02T14:30:03Z</time></trkpt><trkpt lat="45.9130739232385" lon="10.318211343520176"><ele>984.6666666666666</ele><time>2026-05-02T14:30:06Z</time></trkpt><trkpt lat="45.91301049770422" lon="10.318291137668941"><ele>991.3333333333333</ele><time>2026-05-02T14:30:09Z</time></trkpt><trkpt lat="45.91295861634213" lon="10.318348143503728"><ele>998.0</ele><time>2026-05-02T14:30:11Z</time></trkpt><trkpt lat="45.91288853045704" lon="10.31840448049512"><ele>1004.6666666666666</ele><time>2026-05-02T14:30:14.001Z</time></trkpt><trkpt lat="45.91281462391246" lon="10.318456471304726"><ele>1011.3333333333333</ele><time>2026-05-02T14:30:17.001Z</time></trkpt><trkpt lat="45.9127727717282" lon="10.318532210901495"><ele>1018.0</ele><time>2026-05-02T14:30:20.001Z</time></trkpt><trkpt lat="45.91271629136695" lon="10.318613146058143"><ele>1017.9999999999999</ele><time>2026-05-02T14:30:23.001Z</time></trkpt><trkpt lat="45.912674240473" lon="10.318704884038782"><ele>1018.0</ele><time>2026-05-02T14:30:26.001Z</time></trkpt><trkpt lat="45.912628846109286" lon="10.318797532106965"><ele>1018.0</ele><time>2026-05-02T14:30:29.001Z</time></trkpt><trkpt lat="45.91257516250026" lon="10.31886460073109"><ele>1018.0</ele><time>2026-05-02T14:30:31.001Z</time></trkpt><trkpt lat="45.912523916930276" lon="10.318959070419325"><ele>1017.9999999999999</ele><time>2026-05-02T14:30:34.001Z</time></trkpt><trkpt lat="45.91245622709902" lon="10.319024917716845"><ele>1018.0</ele><time>2026-05-02T14:30:38.001Z</time></trkpt><trkpt lat="45.912410906441664" lon="10.319118655900644"><ele>1017.4285714285713</ele><time>2026-05-02T14:30:41.001Z</time></trkpt><trkpt lat="45.91236691693419" lon="10.319207969855638"><ele>1016.8571428571429</ele><time>2026-05-02T14:30:44.001Z</time></trkpt><trkpt lat="45.91232169363229" lon="10.319294526666718"><ele>1016.2857142857142</ele><time>2026-05-02T14:30:47.001Z</time></trkpt><trkpt lat="45.912274508899344" lon="10.319395800208296"><ele>1015.7142857142857</ele><time>2026-05-02T14:30:50.001Z</time></trkpt><trkpt lat="45.91231004807666" lon="10.319307257247289"><ele>1015.1428571428571</ele><time>2026-05-02T14:31:24.999Z</time></trkpt><trkpt lat="45.912343858521574" lon="10.319229458322697"><ele>1014.5714285714286</ele><time>2026-05-02T14:31:29.999Z</time></trkpt><trkpt lat="45.912379289875375" lon="10.319146746308201"><ele>1014.0</ele><time>2026-05-02T14:31:35Z</time></trkpt><trkpt lat="45.91240467323174" lon="10.319063279146762"><ele>1014.0</ele><time>2026-05-02T14:31:43Z</time></trkpt><trkpt lat="45.91233830862536" lon="10.319141638696287"><ele>1014.0</ele><time>2026-05-02T14:32:03Z</time></trkpt><trkpt lat="45.91230380549493" lon="10.319219223764373"><ele>1014.0</ele><time>2026-05-02T14:32:06Z</time></trkpt><trkpt lat="45.91227477228677" lon="10.319315138825234"><ele>1014.0</ele><time>2026-05-02T14:32:09Z</time></trkpt><trkpt lat="45.912264622827514" lon="10.319444140754749"><ele>1014.0</ele><time>2026-05-02T14:32:12Z</time></trkpt><trkpt lat="45.912273852617105" lon="10.319591146628973"><ele>1014.0</ele><time>2026-05-02T14:32:15Z</time></trkpt><trkpt lat="45.91230544962802" lon="10.319711393524226"><ele>1016.3333333333334</ele><time>2026-05-02T14:32:17Z</time></trkpt><trkpt lat="45.91235618876021" lon="10.319842831775125"><ele>1018.6666666666667</ele><time>2026-05-02T14:32:20.001Z</time></trkpt><trkpt lat="45.91241336272028" lon="10.319926761438765"><ele>1021.0</ele><time>2026-05-02T14:32:22.001Z</time></trkpt><trkpt lat="45.91244645543416" lon="10.320036062963936"><ele>1023.3333333333334</ele><time>2026-05-02T14:32:24.001Z</time></trkpt><trkpt lat="45.912484328025414" lon="10.320135391946407"><ele>1025.6666666666667</ele><time>2026-05-02T14:32:26.001Z</time></trkpt><trkpt lat="45.91247765845049" lon="10.320244997328013"><ele>1028.0</ele><time>2026-05-02T14:32:29.001Z</time></trkpt><trkpt lat="45.9124731579402" lon="10.320335304380272"><ele>1028.0</ele><time>2026-05-02T14:32:31.001Z</time></trkpt><trkpt lat="45.91246026880603" lon="10.320466488781486"><ele>1028.0</ele><time>2026-05-02T14:32:34.001Z</time></trkpt><trkpt lat="45.91245085489092" lon="10.320573713232571"><ele>1028.0</ele><time>2026-05-02T14:32:36.001Z</time></trkpt><trkpt lat="45.9124244061379" lon="10.320692372308796"><ele>1028.0</ele><time>2026-05-02T14:32:39.001Z</time></trkpt><trkpt lat="45.91243348942698" lon="10.32080045337374"><ele>1028.0</ele><time>2026-05-02T14:32:41.001Z</time></trkpt><trkpt lat="45.912456549324055" lon="10.320903610683896"><ele>1028.0</ele><time>2026-05-02T14:32:43.001Z</time></trkpt><trkpt lat="45.91248540861703" lon="10.320995097410705"><ele>1030.3333333333335</ele><time>2026-05-02T14:32:45.001Z</time></trkpt><trkpt lat="45.912502407645405" lon="10.321087430372216"><ele>1032.6666666666667</ele><time>2026-05-02T14:32:47.001Z</time></trkpt><trkpt lat="45.91250422172491" lon="10.321184857707701"><ele>1035.0</ele><time>2026-05-02T14:32:50.001Z</time></trkpt><trkpt lat="45.912471144615004" lon="10.321277297478332"><ele>1037.3333333333333</ele><time>2026-05-02T14:32:55.001Z</time></trkpt><trkpt lat="45.912405575230665" lon="10.321240448532254"><ele>1039.6666666666665</ele><time>2026-05-02T14:32:58.001Z</time></trkpt><trkpt lat="45.912316461056825" lon="10.32129635770032"><ele>1042.0</ele><time>2026-05-02T14:33:00.001Z</time></trkpt><trkpt lat="45.91222843934125" lon="10.321261898570015"><ele>1042.0</ele><time>2026-05-02T14:33:02.001Z</time></trkpt><trkpt lat="45.912130602529274" lon="10.321223323619616"><ele>1042.0</ele><time>2026-05-02T14:33:04.001Z</time></trkpt><trkpt lat="45.91205945351632" lon="10.321199786968421"><ele>1042.0</ele><time>2026-05-02T14:33:06.001Z</time></trkpt><trkpt lat="45.91197129019572" lon="10.321224105800065"><ele>1042.0</ele><time>2026-05-02T14:33:08.001Z</time></trkpt><trkpt lat="45.91188940277385" lon="10.321304459223342"><ele>1042.0</ele><time>2026-05-02T14:33:10.001Z</time></trkpt><trkpt lat="45.91182191723159" lon="10.32116013306993"><ele>1036.3333333333333</ele><time>2026-05-02T14:33:12.001Z</time></trkpt><trkpt lat="45.9117391163412" lon="10.321181589848516"><ele>1030.6666666666665</ele><time>2026-05-02T14:33:15.001Z</time></trkpt><trkpt lat="45.91167515993308" lon="10.32114269785951"><ele>1025.0</ele><time>2026-05-02T14:33:17.001Z</time></trkpt><trkpt lat="45.91161066200661" lon="10.321061250121899"><ele>1019.3333333333333</ele><time>2026-05-02T14:33:19.001Z</time></trkpt><trkpt lat="45.91150518998842" lon="10.321006986000238"><ele>1013.6666666666666</ele><time>2026-05-02T14:33:22.002Z</time></trkpt><trkpt lat="45.91142937120298" lon="10.321015057951525"><ele>1008.0</ele><time>2026-05-02T14:33:24.002Z</time></trkpt><trkpt lat="45.91135480529978" lon="10.321055182451211"><ele>1008.0</ele><time>2026-05-02T14:33:26.002Z</time></trkpt><trkpt lat="45.911264184671076" lon="10.3211051064545"><ele>1008.0</ele><time>2026-05-02T14:33:28.002Z</time></trkpt><trkpt lat="45.91120007464558" lon="10.321193264526075"><ele>1008.0</ele><time>2026-05-02T14:33:30.002Z</time></trkpt><trkpt lat="45.91113882985718" lon="10.321281933713498"><ele>1008.0</ele><time>2026-05-02T14:33:32Z</time></trkpt><trkpt lat="45.9110843225407" lon="10.321351974350236"><ele>1008.0</ele><time>2026-05-02T14:33:34Z</time></trkpt><trkpt lat="45.91101873222556" lon="10.321432980493585"><ele>1008.0</ele><time>2026-05-02T14:33:36Z</time></trkpt><trkpt lat="45.91095718569516" lon="10.321499790333316"><ele>1014.4</ele><time>2026-05-02T14:33:38Z</time></trkpt><trkpt lat="45.910885713754006" lon="10.321559537217293"><ele>1020.8</ele><time>2026-05-02T14:33:41Z</time></trkpt><trkpt lat="45.91080380332047" lon="10.321609969398981"><ele>1027.2</ele><time>2026-05-02T14:33:43Z</time></trkpt><trkpt lat="45.91070209778598" lon="10.321655120905746"><ele>1033.6</ele><time>2026-05-02T14:33:45Z</time></trkpt><trkpt lat="45.91059561250996" lon="10.321686159194558"><ele>1040.0</ele><time>2026-05-02T14:33:47Z</time></trkpt><trkpt lat="45.91050370915287" lon="10.321695070476679"><ele>1040.0</ele><time>2026-05-02T14:33:49Z</time></trkpt><trkpt lat="45.91044039398891" lon="10.321697398506403"><ele>1040.0</ele><time>2026-05-02T14:33:50Z</time></trkpt><trkpt lat="45.910348000518304" lon="10.32170104407879"><ele>1040.0</ele><time>2026-05-02T14:33:52Z</time></trkpt><trkpt lat="45.91025925128609" lon="10.321713740552578"><ele>1040.0</ele><time>2026-05-02T14:33:54Z</time></trkpt><trkpt lat="45.910155094999176" lon="10.321743867475245"><ele>1040.0</ele><time>2026-05-02T14:33:56Z</time></trkpt><trkpt lat="45.91006526087955" lon="10.32182125561571"><ele>1040.0</ele><time>2026-05-02T14:33:58Z</time></trkpt><trkpt lat="45.91003477641732" lon="10.32196793150265"><ele>1040.0</ele><time>2026-05-02T14:34:00Z</time></trkpt><trkpt lat="45.91006862636995" lon="10.322061058141335"><ele>1040.0</ele><time>2026-05-02T14:34:02Z</time></trkpt><trkpt lat="45.91008795030611" lon="10.322165243913215"><ele>1040.0</ele><time>2026-05-02T14:34:04Z</time></trkpt><trkpt lat="45.91014021971304" lon="10.32229418302552"><ele>1040.0</ele><time>2026-05-02T14:34:06Z</time></trkpt><trkpt lat="45.91017366914752" lon="10.322439624451466"><ele>1048.2</ele><time>2026-05-02T14:34:08Z</time></trkpt><trkpt lat="45.91020408744873" lon="10.3225754795552"><ele>1056.4</ele><time>2026-05-02T14:34:10Z</time></trkpt><trkpt lat="45.91021845735443" lon="10.322704391788504"><ele>1064.6</ele><time>2026-05-02T14:34:12Z</time></trkpt><trkpt lat="45.91020398845243" lon="10.322818782855352"><ele>1072.8</ele><time>2026-05-02T14:34:14Z</time></trkpt><trkpt lat="45.910140989567736" lon="10.322907625815429"><ele>1081.0</ele><time>2026-05-02T14:34:16Z</time></trkpt><trkpt lat="45.91010210364166" lon="10.323025378731458"><ele>1079.0</ele><time>2026-05-02T14:34:18.001Z</time></trkpt><trkpt lat="45.91005878971386" lon="10.323131204006303"><ele>1077.0</ele><time>2026-05-02T14:34:20.001Z</time></trkpt><trkpt lat="45.910025368633264" lon="10.32326647543178"><ele>1075.0</ele><time>2026-05-02T14:34:22.001Z</time></trkpt><trkpt lat="45.91001028910958" lon="10.323419255203598"><ele>1073.0</ele><time>2026-05-02T14:34:24.001Z</time></trkpt><trkpt lat="45.91001348008741" lon="10.323563772758826"><ele>1071.0</ele><time>2026-05-02T14:34:26.001Z</time></trkpt><trkpt lat="45.90999544919041" lon="10.323651703968773"><ele>1071.0</ele><time>2026-05-02T14:34:28.001Z</time></trkpt><trkpt lat="45.909988145423455" lon="10.323788937767867"><ele>1071.0</ele><time>2026-05-02T14:34:31.001Z</time></trkpt><trkpt lat="45.91001174228004" lon="10.323903765199104"><ele>1071.0</ele><time>2026-05-02T14:34:33.001Z</time></trkpt><trkpt lat="45.910031589334054" lon="10.324021500977267"><ele>1071.0</ele><time>2026-05-02T14:34:35.001Z</time></trkpt><trkpt lat="45.91003033025659" lon="10.324145002747718"><ele>1071.0</ele><time>2026-05-02T14:34:38.001Z</time></trkpt><trkpt lat="45.90998207799936" lon="10.324208345920129"><ele>1071.0</ele><time>2026-05-02T14:34:46.001Z</time></trkpt><trkpt lat="45.909885060771536" lon="10.324123812995934"><ele>1075.3333333333333</ele><time>2026-05-02T14:34:51.001Z</time></trkpt><trkpt lat="45.909810860921844" lon="10.324107189961095"><ele>1079.6666666666667</ele><time>2026-05-02T14:34:55.001Z</time></trkpt><trkpt lat="45.909747313560054" lon="10.324126144961742"><ele>1084.0</ele><time>2026-05-02T14:34:58.001Z</time></trkpt><trkpt lat="45.90965780540469" lon="10.324138772035576"><ele>1088.3333333333335</ele><time>2026-05-02T14:35:01.001Z</time></trkpt><trkpt lat="45.90958992596485" lon="10.324085043949513"><ele>1092.6666666666667</ele><time>2026-05-02T14:35:03.001Z</time></trkpt><trkpt lat="45.90953243338412" lon="10.324024800152825"><ele>1097.0</ele><time>2026-05-02T14:35:05.001Z</time></trkpt><trkpt lat="45.90947971702018" lon="10.323947488399453"><ele>1097.0</ele><time>2026-05-02T14:35:08.001Z</time></trkpt><trkpt lat="45.90940046819834" lon="10.323904672285316"><ele>1097.0</ele><time>2026-05-02T14:35:11.001Z</time></trkpt><trkpt lat="45.909309645789435" lon="10.32385160105418"><ele>1097.0</ele><time>2026-05-02T14:35:14.001Z</time></trkpt><trkpt lat="45.909233615123455" lon="10.323851034249179"><ele>1097.0</ele><time>2026-05-02T14:35:18.001Z</time></trkpt><trkpt lat="45.90916916208137" lon="10.323846475320977"><ele>1097.0</ele><time>2026-05-02T14:35:19.001Z</time></trkpt><trkpt lat="45.90910607345009" lon="10.323845520444841"><ele>1097.0</ele><time>2026-05-02T14:35:21.002Z</time></trkpt><trkpt lat="45.909033687130574" lon="10.323849278544202"><ele>1097.3333333333335</ele><time>2026-05-02T14:35:25.002Z</time></trkpt><trkpt lat="45.90895367783243" lon="10.323856525183329"><ele>1097.6666666666667</ele><time>2026-05-02T14:35:28.002Z</time></trkpt><trkpt lat="45.90888874308703" lon="10.32386382788665"><ele>1098.0</ele><time>2026-05-02T14:35:31.002Z</time></trkpt><trkpt lat="45.908808391715255" lon="10.323875785948497"><ele>1098.3333333333333</ele><time>2026-05-02T14:35:35.002Z</time></trkpt><trkpt lat="45.90874197419976" lon="10.323931300590957"><ele>1098.6666666666665</ele><time>2026-05-02T14:35:38Z</time></trkpt><trkpt lat="45.908663121163954" lon="10.324039026126897"><ele>1099.0</ele><time>2026-05-02T14:35:42Z</time></trkpt><trkpt lat="45.90860730292878" lon="10.324162343267094"><ele>1099.0</ele><time>2026-05-02T14:35:45Z</time></trkpt><trkpt lat="45.90856266031245" lon="10.324238294252146"><ele>1099.0</ele><time>2026-05-02T14:35:47Z</time></trkpt><trkpt lat="45.908518050019445" lon="10.324311802791321"><ele>1099.0</ele><time>2026-05-02T14:35:49Z</time></trkpt><trkpt lat="45.90846675830629" lon="10.324369127988577"><ele>1099.0</ele><time>2026-05-02T14:35:51Z</time></trkpt><trkpt lat="45.90842849365423" lon="10.324463587835039"><ele>1099.0</ele><time>2026-05-02T14:35:53Z</time></trkpt><trkpt lat="45.90837997904623" lon="10.324583350504602"><ele>1099.0</ele><time>2026-05-02T14:35:56Z</time></trkpt><trkpt lat="45.90834486813141" lon="10.324675856120598"><ele>1099.0</ele><time>2026-05-02T14:35:58Z</time></trkpt><trkpt lat="45.90831379439635" lon="10.324761134965664"><ele>1099.5</ele><time>2026-05-02T14:36:00Z</time></trkpt><trkpt lat="45.90828052223957" lon="10.324890836058168"><ele>1100.0</ele><time>2026-05-02T14:36:03Z</time></trkpt><trkpt lat="45.90824498497161" lon="10.324972133630745"><ele>1100.5</ele><time>2026-05-02T14:36:14Z</time></trkpt><trkpt lat="45.908218584678934" lon="10.3250713938776"><ele>1101.0</ele><time>2026-05-02T14:36:17Z</time></trkpt><trkpt lat="45.90817320457475" lon="10.325145468841448"><ele>1101.5</ele><time>2026-05-02T14:36:19Z</time></trkpt><trkpt lat="45.90813313886984" lon="10.325252990772753"><ele>1102.0</ele><time>2026-05-02T14:36:21Z</time></trkpt><trkpt lat="45.90808129814317" lon="10.325374785804708"><ele>1102.0</ele><time>2026-05-02T14:36:23.001Z</time></trkpt><trkpt lat="45.90802590773456" lon="10.32549515008055"><ele>1102.0</ele><time>2026-05-02T14:36:25.001Z</time></trkpt><trkpt lat="45.907960987711895" lon="10.325611571633678"><ele>1102.0</ele><time>2026-05-02T14:36:27.001Z</time></trkpt><trkpt lat="45.907916278247676" lon="10.325681367624993"><ele>1102.0</ele><time>2026-05-02T14:36:28.001Z</time></trkpt><trkpt lat="45.907839255206184" lon="10.325794309924035"><ele>1102.0</ele><time>2026-05-02T14:36:30.001Z</time></trkpt><trkpt lat="45.907791786830636" lon="10.325863026094076"><ele>1102.0</ele><time>2026-05-02T14:36:31.001Z</time></trkpt><trkpt lat="45.90772524468366" lon="10.32599700056396"><ele>1101.6</ele><time>2026-05-02T14:36:33.001Z</time></trkpt><trkpt lat="45.90766373150516" lon="10.326075066698861"><ele>1101.2</ele><time>2026-05-02T14:36:35.001Z</time></trkpt><trkpt lat="45.90760743911487" lon="10.326163669573754"><ele>1100.8</ele><time>2026-05-02T14:36:37.001Z</time></trkpt><trkpt lat="45.90757640471174" lon="10.326285361954898"><ele>1100.4</ele><time>2026-05-02T14:36:39.001Z</time></trkpt><trkpt lat="45.90753825429258" lon="10.326405465192808"><ele>1100.0</ele><time>2026-05-02T14:36:41.001Z</time></trkpt><trkpt lat="45.907512440160474" lon="10.326560149869678"><ele>1100.0</ele><time>2026-05-02T14:36:43.001Z</time></trkpt><trkpt lat="45.9074964414701" lon="10.326692449472722"><ele>1100.0</ele><time>2026-05-02T14:36:45.001Z</time></trkpt><trkpt lat="45.907483061310934" lon="10.326814302663914"><ele>1100.0</ele><time>2026-05-02T14:36:47.001Z</time></trkpt><trkpt lat="45.90746868190956" lon="10.32692809595416"><ele>1100.0</ele><time>2026-05-02T14:36:49.001Z</time></trkpt><trkpt lat="45.907449651742326" lon="10.327043646995364"><ele>1100.0</ele><time>2026-05-02T14:36:52.001Z</time></trkpt><trkpt lat="45.90743225173163" lon="10.32715996823986"><ele>1100.0</ele><time>2026-05-02T14:36:55.001Z</time></trkpt><trkpt lat="45.90739728675621" lon="10.327252947947791"><ele>1104.5</ele><time>2026-05-02T14:37:07.001Z</time></trkpt><trkpt lat="45.9073588854547" lon="10.327372494963797"><ele>1109.0</ele><time>2026-05-02T14:37:10.001Z</time></trkpt><trkpt lat="45.90731434206733" lon="10.327500387999486"><ele>1113.5</ele><time>2026-05-02T14:37:13.001Z</time></trkpt><trkpt lat="45.90725126044674" lon="10.327599201870083"><ele>1118.0</ele><time>2026-05-02T14:37:18.001Z</time></trkpt><trkpt lat="45.907221812480735" lon="10.327692094492038"><ele>1122.5</ele><time>2026-05-02T14:37:21.001Z</time></trkpt><trkpt lat="45.90718824348914" lon="10.327775141115973"><ele>1127.0</ele><time>2026-05-02T14:37:23.002Z</time></trkpt><trkpt lat="45.907131834021335" lon="10.327835641156438"><ele>1127.0</ele><time>2026-05-02T14:37:25.002Z</time></trkpt><trkpt lat="45.9070961501552" lon="10.327929767570737"><ele>1127.0</ele><time>2026-05-02T14:37:27.002Z</time></trkpt><trkpt lat="45.907085255178394" lon="10.328037410952067"><ele>1127.0</ele><time>2026-05-02T14:37:29.002Z</time></trkpt><trkpt lat="45.90708559827414" lon="10.32816888750683"><ele>1127.0</ele><time>2026-05-02T14:37:31.002Z</time></trkpt><trkpt lat="45.90705788485843" lon="10.3282950177547"><ele>1127.0</ele><time>2026-05-02T14:37:33.002Z</time></trkpt><trkpt lat="45.90702594834253" lon="10.328416506414808"><ele>1127.0</ele><time>2026-05-02T14:37:35.002Z</time></trkpt><trkpt lat="45.90700695411858" lon="10.328513281790313"><ele>1126.3333333333335</ele><time>2026-05-02T14:37:37.002Z</time></trkpt><trkpt lat="45.90694847839185" lon="10.328554101168079"><ele>1125.6666666666667</ele><time>2026-05-02T14:37:40.002Z</time></trkpt><trkpt lat="45.90682274171154" lon="10.328471866329167"><ele>1125.0</ele><time>2026-05-02T14:37:43Z</time></trkpt><trkpt lat="45.90675579867857" lon="10.32854183648264"><ele>1124.3333333333333</ele><time>2026-05-02T14:37:47Z</time></trkpt><trkpt lat="45.90668442387729" lon="10.328610564931871"><ele>1123.6666666666665</ele><time>2026-05-02T14:37:50Z</time></trkpt><trkpt lat="45.90662282241157" lon="10.328664860184169"><ele>1123.0</ele><time>2026-05-02T14:37:52Z</time></trkpt><trkpt lat="45.90655866935083" lon="10.328721404207606"><ele>1123.0</ele><time>2026-05-02T14:37:54Z</time></trkpt><trkpt lat="45.906482365817645" lon="10.32881137949099"><ele>1123.0</ele><time>2026-05-02T14:37:57Z</time></trkpt><trkpt lat="45.90639901665977" lon="10.328837786588206"><ele>1123.0</ele><time>2026-05-02T14:38:00Z</time></trkpt><trkpt lat="45.906329993732356" lon="10.328882884622422"><ele>1123.0</ele><time>2026-05-02T14:38:02Z</time></trkpt><trkpt lat="45.90624612218856" lon="10.328943958754975"><ele>1123.0</ele><time>2026-05-02T14:38:05Z</time></trkpt><trkpt lat="45.90617886182207" lon="10.328989322190495"><ele>1123.0</ele><time>2026-05-02T14:38:07Z</time></trkpt><trkpt lat="45.90611179323993" lon="10.3290345563742"><ele>1126.5714285714284</ele><time>2026-05-02T14:38:10Z</time></trkpt><trkpt lat="45.90604832105662" lon="10.329075894066362"><ele>1130.142857142857</ele><time>2026-05-02T14:38:13Z</time></trkpt><trkpt lat="45.90597889754659" lon="10.329098608887737"><ele>1133.7142857142858</ele><time>2026-05-02T14:38:17Z</time></trkpt><trkpt lat="45.90590309364432" lon="10.329145466256996"><ele>1137.2857142857142</ele><time>2026-05-02T14:38:21Z</time></trkpt><trkpt lat="45.90584346338586" lon="10.329192333438774"><ele>1140.857142857143</ele><time>2026-05-02T14:38:24Z</time></trkpt><trkpt lat="45.90575203715032" lon="10.329224849325477"><ele>1144.4285714285713</ele><time>2026-05-02T14:38:27Z</time></trkpt><trkpt lat="45.90569038086103" lon="10.329245947949703"><ele>1148.0</ele><time>2026-05-02T14:38:29Z</time></trkpt><trkpt lat="45.90562440951328" lon="10.329251486981768"><ele>1148.0</ele><time>2026-05-02T14:38:31Z</time></trkpt><trkpt lat="45.90555387347098" lon="10.32925662380374"><ele>1148.0</ele><time>2026-05-02T14:38:33.001Z</time></trkpt><trkpt lat="45.905460132356495" lon="10.32924439117471"><ele>1148.0</ele><time>2026-05-02T14:38:36.001Z</time></trkpt><trkpt lat="45.90539591637641" lon="10.329250379684698"><ele>1148.0</ele><time>2026-05-02T14:38:38.001Z</time></trkpt><trkpt lat="45.90530814310099" lon="10.329271857181807"><ele>1148.0</ele><time>2026-05-02T14:38:41.001Z</time></trkpt><trkpt lat="45.905222064835236" lon="10.329308943635962"><ele>1148.0</ele><time>2026-05-02T14:38:44.001Z</time></trkpt><trkpt lat="45.905146101856175" lon="10.329357174936108"><ele>1146.8333333333335</ele><time>2026-05-02T14:38:47.001Z</time></trkpt><trkpt lat="45.90506767189486" lon="10.329394360920086"><ele>1145.6666666666667</ele><time>2026-05-02T14:38:50.001Z</time></trkpt><trkpt lat="45.90498245122775" lon="10.329441019259132"><ele>1144.5</ele><time>2026-05-02T14:38:53.001Z</time></trkpt><trkpt lat="45.904931049424526" lon="10.329499463647895"><ele>1143.3333333333333</ele><time>2026-05-02T14:38:55.001Z</time></trkpt><trkpt lat="45.90488070618542" lon="10.329569159593133"><ele>1142.1666666666665</ele><time>2026-05-02T14:38:57.001Z</time></trkpt><trkpt lat="45.90484986624455" lon="10.3296793156825"><ele>1141.0</ele><time>2026-05-02T14:38:59.001Z</time></trkpt><trkpt lat="45.90475051757764" lon="10.32979578909664"><ele>1144.6666666666665</ele><time>2026-05-02T14:39:01.001Z</time></trkpt><trkpt lat="45.90467136403317" lon="10.329811969112184"><ele>1148.3333333333333</ele><time>2026-05-02T14:39:02.001Z</time></trkpt><trkpt lat="45.904603983913475" lon="10.329867891564646"><ele>1152.0</ele><time>2026-05-02T14:39:03.001Z</time></trkpt><trkpt lat="45.90453345160084" lon="10.329919753391927"><ele>1155.6666666666667</ele><time>2026-05-02T14:39:04.001Z</time></trkpt><trkpt lat="45.9044565732102" lon="10.329935662752801"><ele>1159.3333333333335</ele><time>2026-05-02T14:39:05.001Z</time></trkpt><trkpt lat="45.904378864031074" lon="10.329961826117096"><ele>1163.0</ele><time>2026-05-02T14:39:06.001Z</time></trkpt><trkpt lat="45.90430656951374" lon="10.330004114519259"><ele>1160.0</ele><time>2026-05-02T14:39:07.001Z</time></trkpt><trkpt lat="45.90424635020858" lon="10.33004266232526"><ele>1157.0</ele><time>2026-05-02T14:39:08.001Z</time></trkpt><trkpt lat="45.904155857261735" lon="10.330104004201216"><ele>1154.0</ele><time>2026-05-02T14:39:10.001Z</time></trkpt><trkpt lat="45.90408530291138" lon="10.330150442522763"><ele>1151.0</ele><time>2026-05-02T14:39:12.001Z</time></trkpt><trkpt lat="45.904029034880374" lon="10.330224808055602"><ele>1148.0</ele><time>2026-05-02T14:39:14.001Z</time></trkpt><trkpt lat="45.90397191174212" lon="10.33028943604128"><ele>1145.0</ele><time>2026-05-02T14:39:16.001Z</time></trkpt><trkpt lat="45.903935129236054" lon="10.330380922034918"><ele>1145.0</ele><time>2026-05-02T14:39:18.001Z</time></trkpt><trkpt lat="45.90393761583254" lon="10.33047451996468"><ele>1145.0</ele><time>2026-05-02T14:39:20.001Z</time></trkpt><trkpt lat="45.903926726588786" lon="10.330611543246201"><ele>1145.0</ele><time>2026-05-02T14:39:23.001Z</time></trkpt><trkpt lat="45.90396532854918" lon="10.330715883998971"><ele>1145.0</ele><time>2026-05-02T14:39:25.001Z</time></trkpt><trkpt lat="45.90403012612007" lon="10.330809698643181"><ele>1145.0</ele><time>2026-05-02T14:39:27.001Z</time></trkpt><trkpt lat="45.90414056753983" lon="10.330827859830329"><ele>1145.0</ele><time>2026-05-02T14:39:29.001Z</time></trkpt><trkpt lat="45.90422994511338" lon="10.330864276889692"><ele>1154.0</ele><time>2026-05-02T14:39:31.002Z</time></trkpt><trkpt lat="45.904304984749935" lon="10.330886713886825"><ele>1163.0</ele><time>2026-05-02T14:39:33.002Z</time></trkpt><trkpt lat="45.904400791191016" lon="10.33096665940604"><ele>1172.0</ele><time>2026-05-02T14:39:35.002Z</time></trkpt><trkpt lat="45.90444420871305" lon="10.331082696094139"><ele>1181.0</ele><time>2026-05-02T14:39:37.002Z</time></trkpt><trkpt lat="45.90449170562198" lon="10.331191035678154"><ele>1190.0</ele><time>2026-05-02T14:39:39.002Z</time></trkpt><trkpt lat="45.90453179162747" lon="10.331304104606515"><ele>1191.2</ele><time>2026-05-02T14:39:41.002Z</time></trkpt><trkpt lat="45.90456481851334" lon="10.331428073030681"><ele>1192.4</ele><time>2026-05-02T14:39:43.002Z</time></trkpt><trkpt lat="45.904605448731246" lon="10.33155482925706"><ele>1193.6</ele><time>2026-05-02T14:39:45.002Z</time></trkpt><trkpt lat="45.90461756302743" lon="10.331690561953064"><ele>1194.8</ele><time>2026-05-02T14:39:47.002Z</time></trkpt><trkpt lat="45.90463361916194" lon="10.331825110272217"><ele>1196.0</ele><time>2026-05-02T14:39:49Z</time></trkpt><trkpt lat="45.904636147084766" lon="10.331947863855243"><ele>1196.0</ele><time>2026-05-02T14:39:51Z</time></trkpt><trkpt lat="45.90464122848208" lon="10.33206184922289"><ele>1196.0</ele><time>2026-05-02T14:39:53Z</time></trkpt><trkpt lat="45.90466410907517" lon="10.332178992466636"><ele>1196.0</ele><time>2026-05-02T14:39:55Z</time></trkpt><trkpt lat="45.904679785491865" lon="10.332314793146619"><ele>1196.0</ele><time>2026-05-02T14:39:57Z</time></trkpt><trkpt lat="45.904715120567175" lon="10.332436748454246"><ele>1196.0</ele><time>2026-05-02T14:39:59Z</time></trkpt><trkpt lat="45.904735980396914" lon="10.33256522220351"><ele>1196.0</ele><time>2026-05-02T14:40:01Z</time></trkpt><trkpt lat="45.90476555397003" lon="10.332656858037497"><ele>1194.8333333333335</ele><time>2026-05-02T14:40:03Z</time></trkpt><trkpt lat="45.90478939162217" lon="10.332741954905746"><ele>1193.6666666666667</ele><time>2026-05-02T14:40:07Z</time></trkpt><trkpt lat="45.90476063584479" lon="10.332871640388428"><ele>1192.5</ele><time>2026-05-02T14:40:11Z</time></trkpt><trkpt lat="45.90473385076344" lon="10.332969859431131"><ele>1191.3333333333333</ele><time>2026-05-02T14:40:13Z</time></trkpt><trkpt lat="45.90467364090732" lon="10.33301055804123"><ele>1190.1666666666665</ele><time>2026-05-02T14:40:16Z</time></trkpt><trkpt lat="45.90460416772764" lon="10.333087415050818"><ele>1189.0</ele><time>2026-05-02T14:40:19Z</time></trkpt><trkpt lat="45.90453934275435" lon="10.333149255712517"><ele>1188.1666666666665</ele><time>2026-05-02T14:40:21Z</time></trkpt><trkpt lat="45.904468208333974" lon="10.333199397736548"><ele>1187.3333333333333</ele><time>2026-05-02T14:40:23Z</time></trkpt><trkpt lat="45.904405239281225" lon="10.333272816207122"><ele>1186.5</ele><time>2026-05-02T14:40:25Z</time></trkpt><trkpt lat="45.90437616990462" lon="10.333399491618806"><ele>1185.6666666666667</ele><time>2026-05-02T14:40:27Z</time></trkpt><trkpt lat="45.90440179578373" lon="10.3335088319312"><ele>1184.8333333333335</ele><time>2026-05-02T14:40:29Z</time></trkpt><trkpt lat="45.90443347604113" lon="10.33361692195461"><ele>1184.0</ele><time>2026-05-02T14:40:31Z</time></trkpt><trkpt lat="45.90444666771228" lon="10.333720219206286"><ele>1184.0</ele><time>2026-05-02T14:40:33Z</time></trkpt><trkpt lat="45.90446921717109" lon="10.333833457935894"><ele>1184.0</ele><time>2026-05-02T14:40:35Z</time></trkpt><trkpt lat="45.90449260209735" lon="10.333953130906904"><ele>1184.0</ele><time>2026-05-02T14:40:37Z</time></trkpt><trkpt lat="45.90453063704907" lon="10.334065175655196"><ele>1184.0</ele><time>2026-05-02T14:40:39Z</time></trkpt><trkpt lat="45.90455548611479" lon="10.334167259727215"><ele>1184.0</ele><time>2026-05-02T14:40:41Z</time></trkpt><trkpt lat="45.90454667347833" lon="10.334284825960786"><ele>1184.0</ele><time>2026-05-02T14:40:44Z</time></trkpt><trkpt lat="45.90451744272964" lon="10.334398992846388"><ele>1185.6666666666667</ele><time>2026-05-02T14:40:46.001Z</time></trkpt><trkpt lat="45.904498881330554" lon="10.334516972351189"><ele>1187.3333333333335</ele><time>2026-05-02T14:40:48.001Z</time></trkpt><trkpt lat="45.90448469838835" lon="10.334620178264078"><ele>1189.0</ele><time>2026-05-02T14:40:50.001Z</time></trkpt><trkpt lat="45.90448837909977" lon="10.334725929776832"><ele>1190.6666666666667</ele><time>2026-05-02T14:40:52.001Z</time></trkpt><trkpt lat="45.90446668457922" lon="10.334831377950037"><ele>1192.3333333333333</ele><time>2026-05-02T14:40:54.001Z</time></trkpt><trkpt lat="45.90443841937491" lon="10.334950008789825"><ele>1194.0</ele><time>2026-05-02T14:40:57.001Z</time></trkpt><trkpt lat="45.90440266004895" lon="10.335027429053588"><ele>1196.3333333333333</ele><time>2026-05-02T14:41:04.001Z</time></trkpt><trkpt lat="45.90434112464661" lon="10.335090758991896"><ele>1198.6666666666667</ele><time>2026-05-02T14:41:16.001Z</time></trkpt><trkpt lat="45.90427431497802" lon="10.335159107618125"><ele>1201.0</ele><time>2026-05-02T14:41:19.001Z</time></trkpt><trkpt lat="45.90421311634326" lon="10.335221558035796"><ele>1203.3333333333335</ele><time>2026-05-02T14:41:22.001Z</time></trkpt><trkpt lat="45.90415962538792" lon="10.335325104049732"><ele>1205.6666666666667</ele><time>2026-05-02T14:41:25.001Z</time></trkpt><trkpt lat="45.9041004435184" lon="10.335417903860968"><ele>1208.0</ele><time>2026-05-02T14:41:28.001Z</time></trkpt><trkpt lat="45.90405189951722" lon="10.33552291016819"><ele>1204.8333333333335</ele><time>2026-05-02T14:41:31.001Z</time></trkpt><trkpt lat="45.904006745728054" lon="10.335628804993897"><ele>1201.6666666666667</ele><time>2026-05-02T14:41:34.001Z</time></trkpt><trkpt lat="45.90397098174103" lon="10.335730978648263"><ele>1198.5</ele><time>2026-05-02T14:41:37.001Z</time></trkpt><trkpt lat="45.90394902592434" lon="10.335830693314229"><ele>1195.3333333333333</ele><time>2026-05-02T14:41:40.002Z</time></trkpt><trkpt lat="45.903936079594445" lon="10.335925431104746"><ele>1192.1666666666665</ele><time>2026-05-02T14:41:43.002Z</time></trkpt><trkpt lat="45.90389243981544" lon="10.336025547601558"><ele>1189.0</ele><time>2026-05-02T14:41:47.002Z</time></trkpt><trkpt lat="45.90383990883755" lon="10.33614276088419"><ele>1189.0</ele><time>2026-05-02T14:41:50.002Z</time></trkpt><trkpt lat="45.903809794197784" lon="10.336226969380753"><ele>1189.0</ele><time>2026-05-02T14:41:52.002Z</time></trkpt><trkpt lat="45.90378887310746" lon="10.33632544065139"><ele>1189.0</ele><time>2026-05-02T14:41:54.002Z</time></trkpt><trkpt lat="45.90372739454139" lon="10.336419596601225"><ele>1189.0</ele><time>2026-05-02T14:41:57Z</time></trkpt><trkpt lat="45.90370817639955" lon="10.33651325251667"><ele>1189.0</ele><time>2026-05-02T14:41:58.999Z</time></trkpt><trkpt lat="45.903676482384846" lon="10.336630774494516"><ele>1189.0</ele><time>2026-05-02T14:42:02Z</time></trkpt><trkpt lat="45.903630168699074" lon="10.336724190470088"><ele>1190.1666666666665</ele><time>2026-05-02T14:42:05Z</time></trkpt><trkpt lat="45.903559491964074" lon="10.336798130587454"><ele>1191.3333333333333</ele><time>2026-05-02T14:42:08Z</time></trkpt><trkpt lat="45.90349912101916" lon="10.33687886862493"><ele>1192.5</ele><time>2026-05-02T14:42:10Z</time></trkpt><trkpt lat="45.90344799701486" lon="10.33695504278168"><ele>1193.6666666666667</ele><time>2026-05-02T14:42:12Z</time></trkpt><trkpt lat="45.90338064463777" lon="10.337039661452296"><ele>1194.8333333333335</ele><time>2026-05-02T14:42:15Z</time></trkpt><trkpt lat="45.90332332815605" lon="10.337105455186995"><ele>1196.0</ele><time>2026-05-02T14:42:17Z</time></trkpt><trkpt lat="45.90327498358105" lon="10.337166851351801"><ele>1200.5</ele><time>2026-05-02T14:42:19Z</time></trkpt><trkpt lat="45.903207138835654" lon="10.337236314558602"><ele>1205.0</ele><time>2026-05-02T14:42:22Z</time></trkpt><trkpt lat="45.903166722372475" lon="10.337310486542385"><ele>1209.5</ele><time>2026-05-02T14:42:24Z</time></trkpt><trkpt lat="45.9031250331671" lon="10.337383054049413"><ele>1214.0</ele><time>2026-05-02T14:42:26Z</time></trkpt><trkpt lat="45.90308473243923" lon="10.337493930800914"><ele>1218.5</ele><time>2026-05-02T14:42:29Z</time></trkpt><trkpt lat="45.90304373699183" lon="10.337622492662966"><ele>1223.0</ele><time>2026-05-02T14:42:32Z</time></trkpt><trkpt lat="45.9030257207698" lon="10.337734493338644"><ele>1223.0</ele><time>2026-05-02T14:42:35Z</time></trkpt><trkpt lat="45.90300705018864" lon="10.337856864733679"><ele>1223.0</ele><time>2026-05-02T14:42:38Z</time></trkpt><trkpt lat="45.902992003791105" lon="10.337986386544104"><ele>1223.0</ele><time>2026-05-02T14:42:41Z</time></trkpt><trkpt lat="45.90296426285394" lon="10.338081339213284"><ele>1223.0</ele><time>2026-05-02T14:42:45.001Z</time></trkpt><trkpt lat="45.902936725155165" lon="10.338199858736317"><ele>1223.0</ele><time>2026-05-02T14:42:48.001Z</time></trkpt><trkpt lat="45.902892305806446" lon="10.338284361114797"><ele>1223.0</ele><time>2026-05-02T14:42:50.001Z</time></trkpt><trkpt lat="45.90286260992044" lon="10.338377841057289"><ele>1227.5</ele><time>2026-05-02T14:42:52.001Z</time></trkpt><trkpt lat="45.90283578331165" lon="10.33845973614377"><ele>1232.0</ele><time>2026-05-02T14:42:54.001Z</time></trkpt><trkpt lat="45.90282070955934" lon="10.33855431953224"><ele>1236.5</ele><time>2026-05-02T14:42:56.001Z</time></trkpt><trkpt lat="45.90277944669129" lon="10.338662790664635"><ele>1241.0</ele><time>2026-05-02T14:42:59.001Z</time></trkpt><trkpt lat="45.902748941633135" lon="10.338765841855992"><ele>1245.5</ele><time>2026-05-02T14:43:02.001Z</time></trkpt><trkpt lat="45.90271421614959" lon="10.338872577150871"><ele>1250.0</ele><time>2026-05-02T14:43:05.001Z</time></trkpt><trkpt lat="45.902661833566874" lon="10.338980863425718"><ele>1249.1666666666667</ele><time>2026-05-02T14:43:08.001Z</time></trkpt><trkpt lat="45.902631019280435" lon="10.339102404657194"><ele>1248.3333333333335</ele><time>2026-05-02T14:43:11.001Z</time></trkpt><trkpt lat="45.90259159648723" lon="10.339218452503026"><ele>1247.5</ele><time>2026-05-02T14:43:14.001Z</time></trkpt><trkpt lat="45.902556702916634" lon="10.33932407703636"><ele>1246.6666666666667</ele><time>2026-05-02T14:43:17.001Z</time></trkpt><trkpt lat="45.902542171700375" lon="10.339427768836195"><ele>1245.8333333333333</ele><time>2026-05-02T14:43:20.001Z</time></trkpt><trkpt lat="45.90252495744956" lon="10.339547118087687"><ele>1245.0</ele><time>2026-05-02T14:43:24.001Z</time></trkpt><trkpt lat="45.9025013431037" lon="10.339665927723123"><ele>1248.5714285714284</ele><time>2026-05-02T14:43:27.001Z</time></trkpt><trkpt lat="45.90248370156988" lon="10.339756375822116"><ele>1252.142857142857</ele><time>2026-05-02T14:43:29.001Z</time></trkpt><trkpt lat="45.902457112265445" lon="10.339883659582673"><ele>1255.7142857142858</ele><time>2026-05-02T14:43:32.001Z</time></trkpt><trkpt lat="45.902420355461686" lon="10.339962976624248"><ele>1259.2857142857142</ele><time>2026-05-02T14:43:34.001Z</time></trkpt><trkpt lat="45.90238310403535" lon="10.340037791255348"><ele>1262.857142857143</ele><time>2026-05-02T14:43:36.002Z</time></trkpt><trkpt lat="45.902332798268475" lon="10.340110038738707"><ele>1266.4285714285713</ele><time>2026-05-02T14:43:39.002Z</time></trkpt><trkpt lat="45.902287154302925" lon="10.340179203781616"><ele>1270.0</ele><time>2026-05-02T14:43:41.002Z</time></trkpt><trkpt lat="45.902226272288146" lon="10.34026369439997"><ele>1269.9999999999998</ele><time>2026-05-02T14:43:44.002Z</time></trkpt><trkpt lat="45.90221354415005" lon="10.340365041305958"><ele>1270.0</ele><time>2026-05-02T14:43:47.002Z</time></trkpt><trkpt lat="45.902245181666544" lon="10.340444019710505"><ele>1270.0</ele><time>2026-05-02T14:43:49.002Z</time></trkpt><trkpt lat="45.90227320367666" lon="10.340540373939284"><ele>1270.0</ele><time>2026-05-02T14:43:51.002Z</time></trkpt><trkpt lat="45.90229319651088" lon="10.34062707144834"><ele>1270.0</ele><time>2026-05-02T14:43:53.002Z</time></trkpt><trkpt lat="45.90231609562461" lon="10.340712511730075"><ele>1269.9999999999998</ele><time>2026-05-02T14:43:55.002Z</time></trkpt><trkpt lat="45.90233659774591" lon="10.340811418752576"><ele>1270.0</ele><time>2026-05-02T14:43:57.002Z</time></trkpt><trkpt lat="45.902347926164325" lon="10.340902043148928"><ele>1273.1666666666665</ele><time>2026-05-02T14:43:59.002Z</time></trkpt><trkpt lat="45.90240327153811" lon="10.341037614759118"><ele>1276.3333333333333</ele><time>2026-05-02T14:44:02Z</time></trkpt><trkpt lat="45.90239455903304" lon="10.341151985353012"><ele>1279.5</ele><time>2026-05-02T14:44:05Z</time></trkpt><trkpt lat="45.90233725243497" lon="10.341209525819906"><ele>1282.6666666666667</ele><time>2026-05-02T14:44:08Z</time></trkpt><trkpt lat="45.90230740961626" lon="10.341096517850936"><ele>1285.8333333333335</ele><time>2026-05-02T14:44:10Z</time></trkpt><trkpt lat="45.90228407946552" lon="10.341003032050748"><ele>1289.0</ele><time>2026-05-02T14:44:12Z</time></trkpt><trkpt lat="45.902200743998954" lon="10.341001963395653"><ele>1289.0</ele><time>2026-05-02T14:44:15Z</time></trkpt><trkpt lat="45.90215447158303" lon="10.341097114181483"><ele>1289.0</ele><time>2026-05-02T14:44:18Z</time></trkpt><trkpt lat="45.90215636308525" lon="10.341190976878641"><ele>1289.0</ele><time>2026-05-02T14:44:20Z</time></trkpt><trkpt lat="45.902181022919784" lon="10.341287801124214"><ele>1289.0</ele><time>2026-05-02T14:44:22Z</time></trkpt><trkpt lat="45.90219590183143" lon="10.341379580556456"><ele>1289.0</ele><time>2026-05-02T14:44:24Z</time></trkpt><trkpt lat="45.90218478360798" lon="10.341479066148471"><ele>1289.0</ele><time>2026-05-02T14:44:26.001Z</time></trkpt><trkpt lat="45.90214102289581" lon="10.34159975914643"><ele>1289.0</ele><time>2026-05-02T14:44:29.001Z</time></trkpt><trkpt lat="45.9021079963204" lon="10.341711779886827"><ele>1289.8333333333335</ele><time>2026-05-02T14:44:32.001Z</time></trkpt><trkpt lat="45.90206428784439" lon="10.341828928532152"><ele>1290.6666666666667</ele><time>2026-05-02T14:44:35.001Z</time></trkpt><trkpt lat="45.902026514721825" lon="10.341909944994159"><ele>1291.5</ele><time>2026-05-02T14:44:37.001Z</time></trkpt><trkpt lat="45.90197723192077" lon="10.342018216604906"><ele>1292.3333333333333</ele><time>2026-05-02T14:44:40.001Z</time></trkpt><trkpt lat="45.90193944402819" lon="10.342094813013286"><ele>1293.1666666666665</ele><time>2026-05-02T14:44:43.001Z</time></trkpt><trkpt lat="45.901900403844955" lon="10.342179918935496"><ele>1294.0</ele><time>2026-05-02T14:44:46.001Z</time></trkpt><trkpt lat="45.90186110186904" lon="10.342276183269448"><ele>1295.5</ele><time>2026-05-02T14:44:49.001Z</time></trkpt><trkpt lat="45.901831051120716" lon="10.34237372149721"><ele>1297.0</ele><time>2026-05-02T14:44:52.001Z</time></trkpt><trkpt lat="45.90180655848661" lon="10.342470632220053"><ele>1298.5</ele><time>2026-05-02T14:44:55.001Z</time></trkpt><trkpt lat="45.901807897674594" lon="10.342592775988487"><ele>1300.0</ele><time>2026-05-02T14:44:59.001Z</time></trkpt><trkpt lat="45.90179920872398" lon="10.342684931095992"><ele>1301.5</ele><time>2026-05-02T14:45:02.001Z</time></trkpt><trkpt lat="45.90179231466129" lon="10.342807492048289"><ele>1303.0</ele><time>2026-05-02T14:45:05.001Z</time></trkpt><trkpt lat="45.90178466903162" lon="10.342918921164335"><ele>1303.0</ele><time>2026-05-02T14:45:08.001Z</time></trkpt><trkpt lat="45.90175780261617" lon="10.343010779058215"><ele>1303.0</ele><time>2026-05-02T14:45:10.001Z</time></trkpt><trkpt lat="45.90171786713771" lon="10.343153605687833"><ele>1303.0</ele><time>2026-05-02T14:45:14.001Z</time></trkpt><trkpt lat="45.90168869930007" lon="10.34323562695659"><ele>1303.0</ele><time>2026-05-02T14:45:16.001Z</time></trkpt><trkpt lat="45.90167969185663" lon="10.343342805596796"><ele>1303.0</ele><time>2026-05-02T14:45:19.001Z</time></trkpt><trkpt lat="45.90165857577723" lon="10.34344907493928"><ele>1303.0</ele><time>2026-05-02T14:45:26.001Z</time></trkpt><trkpt lat="45.901634946215445" lon="10.34354098563096"><ele>1306.0</ele><time>2026-05-02T14:45:29.002Z</time></trkpt><trkpt lat="45.90159972366041" lon="10.343659649603888"><ele>1309.0</ele><time>2026-05-02T14:45:32.002Z</time></trkpt><trkpt lat="45.901562168162016" lon="10.343740565534773"><ele>1312.0</ele><time>2026-05-02T14:45:34.002Z</time></trkpt><trkpt lat="45.90152697748698" lon="10.343819739071995"><ele>1315.0</ele><time>2026-05-02T14:45:38.002Z</time></trkpt><trkpt lat="45.90151598601205" lon="10.343910460208553"><ele>1318.0</ele><time>2026-05-02T14:45:41.002Z</time></trkpt><trkpt lat="45.901495716539664" lon="10.344034087135746"><ele>1321.0</ele><time>2026-05-02T14:46:23Z</time></trkpt><trkpt lat="45.90150446636191" lon="10.344153850084545"><ele>1321.6666666666665</ele><time>2026-05-02T14:46:26Z</time></trkpt><trkpt lat="45.901506570993874" lon="10.344268368478856"><ele>1322.3333333333333</ele><time>2026-05-02T14:46:29.001Z</time></trkpt><trkpt lat="45.901479147851646" lon="10.344361628111821"><ele>1323.0</ele><time>2026-05-02T14:46:33.001Z</time></trkpt><trkpt lat="45.901448873636" lon="10.34446605372621"><ele>1323.6666666666667</ele><time>2026-05-02T14:46:37.001Z</time></trkpt><trkpt lat="45.90140410234812" lon="10.34455379603996"><ele>1324.3333333333335</ele><time>2026-05-02T14:46:40.001Z</time></trkpt><trkpt lat="45.90137131713238" lon="10.344658904223715"><ele>1325.0</ele><time>2026-05-02T14:46:47.001Z</time></trkpt><trkpt lat="45.90134385956228" lon="10.344753016411879"><ele>1325.4285714285716</ele><time>2026-05-02T14:46:50.001Z</time></trkpt><trkpt lat="45.90133430834283" lon="10.34484751980383"><ele>1325.8571428571427</ele><time>2026-05-02T14:46:53.001Z</time></trkpt><trkpt lat="45.901326856236075" lon="10.344959680403097"><ele>1326.2857142857142</ele><time>2026-05-02T14:46:56.001Z</time></trkpt><trkpt lat="45.90134306461481" lon="10.345071231904083"><ele>1326.7142857142858</ele><time>2026-05-02T14:46:59.001Z</time></trkpt><trkpt lat="45.90135833697724" lon="10.345171703237483"><ele>1327.1428571428573</ele><time>2026-05-02T14:47:02.001Z</time></trkpt><trkpt lat="45.90135721131786" lon="10.345279500589669"><ele>1327.5714285714284</ele><time>2026-05-02T14:47:06.001Z</time></trkpt><trkpt lat="45.90134552938272" lon="10.345374544771312"><ele>1328.0</ele><time>2026-05-02T14:47:09.001Z</time></trkpt><trkpt lat="45.90132830493899" lon="10.345470628034136"><ele>1329.1666666666667</ele><time>2026-05-02T14:47:12.001Z</time></trkpt><trkpt lat="45.90131773043721" lon="10.345560658165144"><ele>1330.3333333333335</ele><time>2026-05-02T14:47:15.001Z</time></trkpt><trkpt lat="45.90133463398236" lon="10.345674986022363"><ele>1331.5</ele><time>2026-05-02T14:47:19.001Z</time></trkpt><trkpt lat="45.901374581825905" lon="10.345749108134195"><ele>1332.6666666666667</ele><time>2026-05-02T14:47:22.001Z</time></trkpt><trkpt lat="45.90141375160688" lon="10.34582681991668"><ele>1333.8333333333333</ele><time>2026-05-02T14:47:25.001Z</time></trkpt><trkpt lat="45.90145172851937" lon="10.345929869744502"><ele>1335.0</ele><time>2026-05-02T14:47:30.001Z</time></trkpt><trkpt lat="45.9013843839861" lon="10.346069273678186"><ele>1335.0</ele><time>2026-05-02T14:47:35.001Z</time></trkpt><trkpt lat="45.90140169504989" lon="10.346161769432268"><ele>1335.0</ele><time>2026-05-02T14:47:38.002Z</time></trkpt><trkpt lat="45.90142067856631" lon="10.34627424831784"><ele>1335.0</ele><time>2026-05-02T14:47:41.002Z</time></trkpt><trkpt lat="45.90147751981798" lon="10.346353150489904"><ele>1335.0</ele><time>2026-05-02T14:47:44.002Z</time></trkpt><trkpt lat="45.901544049805516" lon="10.346418543885498"><ele>1335.0</ele><time>2026-05-02T14:47:47.002Z</time></trkpt><trkpt lat="45.90157738144746" lon="10.346505771464626"><ele>1335.0</ele><time>2026-05-02T14:47:50.002Z</time></trkpt><trkpt lat="45.90158880968848" lon="10.346598549751612"><ele>1335.0</ele><time>2026-05-02T14:47:52.002Z</time></trkpt><trkpt lat="45.90160102324549" lon="10.34670483744064"><ele>1336.7142857142856</ele><time>2026-05-02T14:47:54.002Z</time></trkpt><trkpt lat="45.901605357559774" lon="10.346820042030163"><ele>1338.4285714285716</ele><time>2026-05-02T14:47:57.002Z</time></trkpt><trkpt lat="45.90160376541942" lon="10.346914373251591"><ele>1340.142857142857</ele><time>2026-05-02T14:47:59.002Z</time></trkpt><trkpt lat="45.90159511086972" lon="10.347015653099135"><ele>1341.8571428571427</ele><time>2026-05-02T14:48:01.002Z</time></trkpt><trkpt lat="45.90160307290559" lon="10.347114459228457"><ele>1343.5714285714284</ele><time>2026-05-02T14:48:03.002Z</time></trkpt><trkpt lat="45.901617085498366" lon="10.347206537285437"><ele>1345.2857142857142</ele><time>2026-05-02T14:48:05.002Z</time></trkpt><trkpt lat="45.901635148985186" lon="10.34733922228581"><ele>1347.0</ele><time>2026-05-02T14:48:08.002Z</time></trkpt><trkpt lat="45.90165164528505" lon="10.347451917922077"><ele>1348.2857142857142</ele><time>2026-05-02T14:48:11.002Z</time></trkpt><trkpt lat="45.90165274567225" lon="10.34754636981746"><ele>1349.5714285714284</ele><time>2026-05-02T14:48:13.999Z</time></trkpt><trkpt lat="45.90166717738866" lon="10.347640284491092"><ele>1350.8571428571427</ele><time>2026-05-02T14:48:16.999Z</time></trkpt><trkpt lat="45.90168200981102" lon="10.347736807842834"><ele>1352.142857142857</ele><time>2026-05-02T14:48:19.999Z</time></trkpt><trkpt lat="45.901673836636164" lon="10.347850488848133"><ele>1353.4285714285716</ele><time>2026-05-02T14:48:22.999Z</time></trkpt><trkpt lat="45.90167670076484" lon="10.347967759780273"><ele>1354.7142857142856</ele><time>2026-05-02T14:48:25.999Z</time></trkpt><trkpt lat="45.901677176649585" lon="10.348085958623491"><ele>1356.0</ele><time>2026-05-02T14:48:28.999Z</time></trkpt><trkpt lat="45.90167580190544" lon="10.348202068852235"><ele>1357.7142857142856</ele><time>2026-05-02T14:48:32Z</time></trkpt><trkpt lat="45.90167860319675" lon="10.348305138238526"><ele>1359.4285714285716</ele><time>2026-05-02T14:48:35Z</time></trkpt><trkpt lat="45.90166036144207" lon="10.348400683272946"><ele>1361.142857142857</ele><time>2026-05-02T14:48:39Z</time></trkpt><trkpt lat="45.90164635693102" lon="10.34849504690271"><ele>1362.8571428571427</ele><time>2026-05-02T14:48:43Z</time></trkpt><trkpt lat="45.90165295081148" lon="10.34859212349402"><ele>1364.5714285714284</ele><time>2026-05-02T14:48:46Z</time></trkpt><trkpt lat="45.90166199955899" lon="10.348691977890473"><ele>1366.2857142857142</ele><time>2026-05-02T14:48:49Z</time></trkpt><trkpt lat="45.901664156976246" lon="10.348801443529156"><ele>1368.0</ele><time>2026-05-02T14:48:53Z</time></trkpt><trkpt lat="45.901650244771545" lon="10.348911721368532"><ele>1368.5</ele><time>2026-05-02T14:48:56Z</time></trkpt><trkpt lat="45.9016353317256" lon="10.349012609861672"><ele>1369.0</ele><time>2026-05-02T14:48:59Z</time></trkpt><trkpt lat="45.90161640903162" lon="10.34911123548176"><ele>1369.5</ele><time>2026-05-02T14:49:04Z</time></trkpt><trkpt lat="45.901591679173464" lon="10.34923274863315"><ele>1370.0</ele><time>2026-05-02T14:49:08Z</time></trkpt><trkpt lat="45.901577885211616" lon="10.349331650393337"><ele>1370.5</ele><time>2026-05-02T14:49:12.001Z</time></trkpt><trkpt lat="45.901550489581815" lon="10.34944452535445"><ele>1371.0</ele><time>2026-05-02T14:49:15.001Z</time></trkpt><trkpt lat="45.90154682627906" lon="10.349543763215747"><ele>1371.0</ele><time>2026-05-02T14:49:19.001Z</time></trkpt><trkpt lat="45.901547016013794" lon="10.349647869877344"><ele>1371.0</ele><time>2026-05-02T14:49:23.001Z</time></trkpt><trkpt lat="45.901567297671754" lon="10.349750071835453"><ele>1371.0</ele><time>2026-05-02T14:49:26.001Z</time></trkpt><trkpt lat="45.90158871522283" lon="10.349853071423773"><ele>1371.0</ele><time>2026-05-02T14:49:29.001Z</time></trkpt><trkpt lat="45.901594182679766" lon="10.349973949482385"><ele>1371.0</ele><time>2026-05-02T14:49:32.001Z</time></trkpt><trkpt lat="45.901585101694664" lon="10.350099208834038"><ele>1371.0</ele><time>2026-05-02T14:49:35.001Z</time></trkpt><trkpt lat="45.90159865541746" lon="10.350201233784835"><ele>1372.4285714285713</ele><time>2026-05-02T14:49:38.001Z</time></trkpt><trkpt lat="45.901622573182216" lon="10.350310990274428"><ele>1373.857142857143</ele><time>2026-05-02T14:49:42.001Z</time></trkpt><trkpt lat="45.901666145906034" lon="10.35037639861598"><ele>1375.2857142857142</ele><time>2026-05-02T14:49:45.001Z</time></trkpt><trkpt lat="45.90169138989978" lon="10.350461145197219"><ele>1376.7142857142858</ele><time>2026-05-02T14:49:48.001Z</time></trkpt><trkpt lat="45.90173796712582" lon="10.35052586802897"><ele>1378.142857142857</ele><time>2026-05-02T14:49:51.001Z</time></trkpt><trkpt lat="45.90179286344825" lon="10.350603077154048"><ele>1379.5714285714287</ele><time>2026-05-02T14:49:54.001Z</time></trkpt><trkpt lat="45.90184479445649" lon="10.350703503479819"><ele>1381.0</ele><time>2026-05-02T14:49:57.001Z</time></trkpt><trkpt lat="45.90185881122864" lon="10.350816634966826"><ele>1386.6666666666665</ele><time>2026-05-02T14:50:00.001Z</time></trkpt><trkpt lat="45.90186975362882" lon="10.350938499390475"><ele>1392.3333333333333</ele><time>2026-05-02T14:50:03.001Z</time></trkpt><trkpt lat="45.901892367378714" lon="10.35104285508985"><ele>1398.0</ele><time>2026-05-02T14:50:06.002Z</time></trkpt><trkpt lat="45.90191524522409" lon="10.351145178570345"><ele>1403.6666666666667</ele><time>2026-05-02T14:50:09.002Z</time></trkpt><trkpt lat="45.90194059540366" lon="10.351255547388599"><ele>1409.3333333333335</ele><time>2026-05-02T14:50:13.002Z</time></trkpt><trkpt lat="45.90196364008424" lon="10.351353236707565"><ele>1415.0</ele><time>2026-05-02T14:50:18.002Z</time></trkpt><trkpt lat="45.901986120524846" lon="10.351448534212434"><ele>1415.0</ele><time>2026-05-02T14:50:21Z</time></trkpt><trkpt lat="45.9020205793721" lon="10.351532055941068"><ele>1415.0</ele><time>2026-05-02T14:50:25Z</time></trkpt><trkpt lat="45.902039934779935" lon="10.351651267086346"><ele>1415.0</ele><time>2026-05-02T14:50:28Z</time></trkpt><trkpt lat="45.902067551207416" lon="10.351775887807104"><ele>1415.0</ele><time>2026-05-02T14:50:31Z</time></trkpt><trkpt lat="45.90209973908804" lon="10.351901961459317"><ele>1415.0</ele><time>2026-05-02T14:50:34Z</time></trkpt><trkpt lat="45.9021384675097" lon="10.35200981807694"><ele>1415.0</ele><time>2026-05-02T14:50:37Z</time></trkpt><trkpt lat="45.90218583280507" lon="10.352105022442998"><ele>1415.0</ele><time>2026-05-02T14:50:41Z</time></trkpt><trkpt lat="45.90222785682079" lon="10.352183127274492"><ele>1415.0</ele><time>2026-05-02T14:50:44Z</time></trkpt><trkpt lat="45.902268654892595" lon="10.352281032549856"><ele>1415.0</ele><time>2026-05-02T14:50:48Z</time></trkpt><trkpt lat="45.90232273603094" lon="10.352364744462784"><ele>1415.0</ele><time>2026-05-02T14:50:51Z</time></trkpt><trkpt lat="45.902329660739206" lon="10.352483955758148"><ele>1415.0</ele><time>2026-05-02T14:50:54Z</time></trkpt><trkpt lat="45.9023504505537" lon="10.352574198513384"><ele>1415.0</ele><time>2026-05-02T14:50:56Z</time></trkpt><trkpt lat="45.90240036635892" lon="10.352677692293911"><ele>1416.4285714285716</ele><time>2026-05-02T14:50:59Z</time></trkpt><trkpt lat="45.90244034796081" lon="10.35275596858892"><ele>1417.857142857143</ele><time>2026-05-02T14:51:01.001Z</time></trkpt><trkpt lat="45.90248657941438" lon="10.35282337404704"><ele>1419.2857142857142</ele><time>2026-05-02T14:51:03.001Z</time></trkpt><trkpt lat="45.90254937334919" lon="10.352916889740577"><ele>1420.7142857142858</ele><time>2026-05-02T14:51:06.001Z</time></trkpt><trkpt lat="45.90260220150237" lon="10.352993395102468"><ele>1422.142857142857</ele><time>2026-05-02T14:51:09.001Z</time></trkpt><trkpt lat="45.902606447363205" lon="10.353087887211954"><ele>1423.5714285714287</ele><time>2026-05-02T14:51:12.001Z</time></trkpt><trkpt lat="45.9026335244715" lon="10.3531722763382"><ele>1425.0</ele><time>2026-05-02T14:51:15.001Z</time></trkpt><trkpt lat="45.902659024157465" lon="10.3532654126376"><ele>1425.0</ele><time>2026-05-02T14:51:18.001Z</time></trkpt><trkpt lat="45.90267912075557" lon="10.353353361100286"><ele>1425.0</ele><time>2026-05-02T14:51:21.001Z</time></trkpt><trkpt lat="45.902698642067456" lon="10.353468453234697"><ele>1425.0</ele><time>2026-05-02T14:51:27.001Z</time></trkpt><trkpt lat="45.902708185717195" lon="10.353579123618884"><ele>1425.0</ele><time>2026-05-02T14:51:31.001Z</time></trkpt><trkpt lat="45.90270793089137" lon="10.353707170718279"><ele>1425.0</ele><time>2026-05-02T14:51:37.001Z</time></trkpt><trkpt lat="45.902700075994886" lon="10.353806871239948"><ele>1425.0</ele><time>2026-05-02T14:51:41.001Z</time></trkpt><trkpt lat="45.902708885311384" lon="10.353913574042943"><ele>1424.1428571428573</ele><time>2026-05-02T14:51:45.001Z</time></trkpt><trkpt lat="45.90270585292067" lon="10.354007123911837"><ele>1423.2857142857142</ele><time>2026-05-02T14:51:48.001Z</time></trkpt><trkpt lat="45.90273775338468" lon="10.354105382572511"><ele>1422.4285714285716</ele><time>2026-05-02T14:51:51.001Z</time></trkpt><trkpt lat="45.902813967111925" lon="10.354167935235823"><ele>1421.5714285714287</ele><time>2026-05-02T14:51:54.001Z</time></trkpt><trkpt lat="45.90284953052307" lon="10.35424391640892"><ele>1420.7142857142858</ele><time>2026-05-02T14:51:57.002Z</time></trkpt><trkpt lat="45.90289296954523" lon="10.35434113183688"><ele>1419.857142857143</ele><time>2026-05-02T14:52:01.002Z</time></trkpt><trkpt lat="45.90288798994365" lon="10.354447538096357"><ele>1419.0</ele><time>2026-05-02T14:52:05.002Z</time></trkpt><trkpt lat="45.90292222742326" lon="10.354568763621193"><ele>1419.0</ele><time>2026-05-02T14:52:09.002Z</time></trkpt><trkpt lat="45.90296002952014" lon="10.354679078440538"><ele>1419.0</ele><time>2026-05-02T14:52:14.002Z</time></trkpt><trkpt lat="45.902980125131094" lon="10.354765852457891"><ele>1419.0</ele><time>2026-05-02T14:52:17.002Z</time></trkpt><trkpt lat="45.90304440731225" lon="10.35484502418314"><ele>1419.0</ele><time>2026-05-02T14:52:22.002Z</time></trkpt><trkpt lat="45.90305954756635" lon="10.354960258339316"><ele>1419.0</ele><time>2026-05-02T14:52:24.002Z</time></trkpt><trkpt lat="45.90305595351694" lon="10.35506529121718"><ele>1419.0</ele><time>2026-05-02T14:52:27Z</time></trkpt><trkpt lat="45.903059502215385" lon="10.355178743608734"><ele>1419.142857142857</ele><time>2026-05-02T14:52:30Z</time></trkpt><trkpt lat="45.90306013160264" lon="10.355300202966255"><ele>1419.2857142857144</ele><time>2026-05-02T14:52:33Z</time></trkpt><trkpt lat="45.903074377478035" lon="10.35540778250613"><ele>1419.4285714285716</ele><time>2026-05-02T14:52:36Z</time></trkpt><trkpt lat="45.903075298892794" lon="10.355501416888824"><ele>1419.5714285714284</ele><time>2026-05-02T14:52:40Z</time></trkpt><trkpt lat="45.903075349798925" lon="10.355604335309758"><ele>1419.7142857142858</ele><time>2026-05-02T14:52:43Z</time></trkpt><trkpt lat="45.903069458061175" lon="10.355700167360297"><ele>1419.857142857143</ele><time>2026-05-02T14:52:46Z</time></trkpt><trkpt lat="45.90307602396321" lon="10.355798416730314"><ele>1420.0</ele><time>2026-05-02T14:52:50Z</time></trkpt><trkpt lat="45.90309545007267" lon="10.355887246019918"><ele>1420.7142857142858</ele><time>2026-05-02T14:52:52Z</time></trkpt><trkpt lat="45.90310838560785" lon="10.355992540549522"><ele>1421.4285714285716</ele><time>2026-05-02T14:52:56Z</time></trkpt><trkpt lat="45.90314686682437" lon="10.356084295332689"><ele>1422.1428571428573</ele><time>2026-05-02T14:53:00Z</time></trkpt><trkpt lat="45.903190768457115" lon="10.356163459384318"><ele>1422.857142857143</ele><time>2026-05-02T14:53:03.001Z</time></trkpt><trkpt lat="45.90320920308261" lon="10.356271256314168"><ele>1423.5714285714287</ele><time>2026-05-02T14:53:06.001Z</time></trkpt><trkpt lat="45.90324547669922" lon="10.35634796019671"><ele>1424.2857142857144</ele><time>2026-05-02T14:53:08.001Z</time></trkpt><trkpt lat="45.90326633942684" lon="10.356458466546387"><ele>1425.0</ele><time>2026-05-02T14:53:12.001Z</time></trkpt><trkpt lat="45.90325232478599" lon="10.356550144210427"><ele>1425.6666666666667</ele><time>2026-05-02T14:53:15.001Z</time></trkpt><trkpt lat="45.90325069686032" lon="10.356671909761564"><ele>1426.3333333333333</ele><time>2026-05-02T14:53:18.001Z</time></trkpt><trkpt lat="45.90326263952349" lon="10.35679022035828"><ele>1427.0</ele><time>2026-05-02T14:53:21.001Z</time></trkpt><trkpt lat="45.903279704526064" lon="10.356894837014906"><ele>1427.6666666666665</ele><time>2026-05-02T14:53:25.001Z</time></trkpt><trkpt lat="45.90330305665138" lon="10.357012067916036"><ele>1428.3333333333333</ele><time>2026-05-02T14:53:28.001Z</time></trkpt><trkpt lat="45.90332646332206" lon="10.3571287968706"><ele>1429.0</ele><time>2026-05-02T14:53:31.001Z</time></trkpt><trkpt lat="45.903362713632426" lon="10.357220841802985"><ele>1434.1666666666665</ele><time>2026-05-02T14:53:35.001Z</time></trkpt><trkpt lat="45.903414701080166" lon="10.357309625438047"><ele>1439.3333333333333</ele><time>2026-05-02T14:53:38.001Z</time></trkpt><trkpt lat="45.90348850038098" lon="10.357384605239393"><ele>1444.5</ele><time>2026-05-02T14:53:41.001Z</time></trkpt><trkpt lat="45.90351906940791" lon="10.357469043639124"><ele>1449.6666666666667</ele><time>2026-05-02T14:53:44.001Z</time></trkpt><trkpt lat="45.90354508523415" lon="10.35757489513196"><ele>1454.8333333333335</ele><time>2026-05-02T14:53:48.001Z</time></trkpt><trkpt lat="45.90359366447964" lon="10.357662862507258"><ele>1460.0</ele><time>2026-05-02T14:53:51.001Z</time></trkpt><trkpt lat="45.90366129726363" lon="10.35770775622551"><ele>1460.0</ele><time>2026-05-02T14:53:54.001Z</time></trkpt><trkpt lat="45.90373022363174" lon="10.357754530346924"><ele>1460.0</ele><time>2026-05-02T14:53:57.002Z</time></trkpt><trkpt lat="45.903803351483184" lon="10.35780415563413"><ele>1460.0</ele><time>2026-05-02T14:54:00.002Z</time></trkpt><trkpt lat="45.90395146148455" lon="10.357687468500748"><ele>1460.0</ele><time>2026-05-02T14:54:03.002Z</time></trkpt><trkpt lat="45.904035295732285" lon="10.357667568626084"><ele>1460.0</ele><time>2026-05-02T14:54:06.002Z</time></trkpt><trkpt lat="45.904080406153994" lon="10.357735539920021"><ele>1460.0</ele><time>2026-05-02T14:54:08.002Z</time></trkpt><trkpt lat="45.90411375363313" lon="10.357840762046989"><ele>1460.0</ele><time>2026-05-02T14:54:10.002Z</time></trkpt><trkpt lat="45.90413717901676" lon="10.357948566845643"><ele>1460.0</ele><time>2026-05-02T14:54:12.002Z</time></trkpt><trkpt lat="45.90415885392178" lon="10.3580531119354"><ele>1460.0</ele><time>2026-05-02T14:54:14.002Z</time></trkpt><trkpt lat="45.904191741344036" lon="10.358143912743316"><ele>1460.0</ele><time>2026-05-02T14:54:16.002Z</time></trkpt><trkpt lat="45.90421778632446" lon="10.35824416117907"><ele>1460.0</ele><time>2026-05-02T14:54:19.002Z</time></trkpt><trkpt lat="45.90423365410458" lon="10.358357230490904"><ele>1464.1666666666667</ele><time>2026-05-02T14:54:22.002Z</time></trkpt><trkpt lat="45.90427573157826" lon="10.358475291808642"><ele>1468.3333333333335</ele><time>2026-05-02T14:54:24.002Z</time></trkpt><trkpt lat="45.904320764408126" lon="10.358553402632458"><ele>1472.5</ele><time>2026-05-02T14:54:26.002Z</time></trkpt><trkpt lat="45.90436090910184" lon="10.358640212626307"><ele>1476.6666666666667</ele><time>2026-05-02T14:54:29.002Z</time></trkpt><trkpt lat="45.90437780072057" lon="10.35880226950987"><ele>1480.8333333333333</ele><time>2026-05-02T14:54:32.001Z</time></trkpt><trkpt lat="45.90441064829706" lon="10.358899529659709"><ele>1485.0</ele><time>2026-05-02T14:54:36.001Z</time></trkpt><trkpt lat="45.90445329392594" lon="10.358980085687694"><ele>1485.0</ele><time>2026-05-02T14:54:38.001Z</time></trkpt><trkpt lat="45.90450690738064" lon="10.359034793389974"><ele>1485.0</ele><time>2026-05-02T14:54:43.001Z</time></trkpt><trkpt lat="45.904607033300145" lon="10.35908817694006"><ele>1485.0</ele><time>2026-05-02T14:54:46.001Z</time></trkpt><trkpt lat="45.904651656717235" lon="10.359199802227197"><ele>1485.0</ele><time>2026-05-02T14:54:51.001Z</time></trkpt><trkpt lat="45.90469711319255" lon="10.35931596907453"><ele>1485.0</ele><time>2026-05-02T14:54:54.001Z</time></trkpt><trkpt lat="45.90471332764419" lon="10.359406801857723"><ele>1485.0</ele><time>2026-05-02T14:54:57.001Z</time></trkpt><trkpt lat="45.90474418632293" lon="10.359507893729283"><ele>1485.0</ele><time>2026-05-02T14:55:00.001Z</time></trkpt><trkpt lat="45.90478959266822" lon="10.35958123953859"><ele>1485.0</ele><time>2026-05-02T14:55:02.001Z</time></trkpt><trkpt lat="45.9048385456407" lon="10.359657375503103"><ele>1485.0</ele><time>2026-05-02T14:55:05.001Z</time></trkpt><trkpt lat="45.90488798576348" lon="10.359742305459424"><ele>1485.0</ele><time>2026-05-02T14:55:09.001Z</time></trkpt><trkpt lat="45.90494575830682" lon="10.35979262356234"><ele>1485.0</ele><time>2026-05-02T14:55:11.001Z</time></trkpt><trkpt lat="45.90499634070843" lon="10.359887581126854"><ele>1485.0</ele><time>2026-05-02T14:55:14.001Z</time></trkpt><trkpt lat="45.905051237355096" lon="10.359942848573684"><ele>1485.0</ele><time>2026-05-02T14:55:18.001Z</time></trkpt><trkpt lat="45.90510357164569" lon="10.360003052808382"><ele>1487.857142857143</ele><time>2026-05-02T14:55:21.001Z</time></trkpt><trkpt lat="45.905163001040414" lon="10.36005365945917"><ele>1490.7142857142858</ele><time>2026-05-02T14:55:24.001Z</time></trkpt><trkpt lat="45.905214111860964" lon="10.360133207278382"><ele>1493.5714285714284</ele><time>2026-05-02T14:55:28.001Z</time></trkpt><trkpt lat="45.90525180031402" lon="10.360220075738393"><ele>1496.4285714285716</ele><time>2026-05-02T14:55:30.001Z</time></trkpt><trkpt lat="45.905260819804745" lon="10.360327392821073"><ele>1499.2857142857142</ele><time>2026-05-02T14:55:33.001Z</time></trkpt><trkpt lat="45.905270144186474" lon="10.360419762085385"><ele>1502.142857142857</ele><time>2026-05-02T14:55:37.001Z</time></trkpt><trkpt lat="45.90523994668654" lon="10.360515418593149"><ele>1505.0</ele><time>2026-05-02T14:55:54.002Z</time></trkpt><trkpt lat="45.90527051209652" lon="10.360436032607458"><ele>1505.0</ele><time>2026-05-02T14:56:19.002Z</time></trkpt><trkpt lat="45.90521638055308" lon="10.36036424933543"><ele>1505.0</ele><time>2026-05-02T14:56:43.001Z</time></trkpt><trkpt lat="45.90527453782638" lon="10.360274544988892"><ele>1505.0</ele><time>2026-05-02T14:56:46.001Z</time></trkpt><trkpt lat="45.90527808751957" lon="10.360169007808924"><ele>1505.0</ele><time>2026-05-02T14:56:50.001Z</time></trkpt><trkpt lat="45.90528156580444" lon="10.3600655961431"><ele>1505.0</ele><time>2026-05-02T14:56:54.001Z</time></trkpt><trkpt lat="45.905262817305214" lon="10.359975930191895"><ele>1505.0</ele><time>2026-05-02T14:57:00.001Z</time></trkpt><trkpt lat="45.905255428420205" lon="10.359868164910921"><ele>1505.0</ele><time>2026-05-02T14:57:05.001Z</time></trkpt><trkpt lat="45.90528666614628" lon="10.359785433142102"><ele>1503.0</ele><time>2026-05-02T14:57:08.001Z</time></trkpt><trkpt lat="45.90528251593261" lon="10.359687889385148"><ele>1501.0</ele><time>2026-05-02T14:57:12.001Z</time></trkpt><trkpt lat="45.90487332775901" lon="10.359726227935665"><ele>1498.3333333333333</ele><time>2026-05-02T14:57:13.001Z</time></trkpt><trkpt lat="45.90482675388451" lon="10.359657536509363"><ele>1495.6666666666665</ele><time>2026-05-02T14:57:17.001Z</time></trkpt><trkpt lat="45.90479067440332" lon="10.3595548761344"><ele>1493.0</ele><time>2026-05-02T14:57:21.001Z</time></trkpt><trkpt lat="45.90474331768603" lon="10.359490203303007"><ele>1490.3333333333333</ele><time>2026-05-02T14:57:24.001Z</time></trkpt><trkpt lat="45.904716094597" lon="10.359376394078643"><ele>1487.6666666666667</ele><time>2026-05-02T14:57:28.001Z</time></trkpt><trkpt lat="45.904671099609786" lon="10.35928742578099"><ele>1485.0</ele><time>2026-05-02T14:57:34.001Z</time></trkpt><trkpt lat="45.90464202351748" lon="10.35918099085363"><ele>1485.0</ele><time>2026-05-02T14:57:38.001Z</time></trkpt><trkpt lat="45.904603199337295" lon="10.359094574087289"><ele>1485.0</ele><time>2026-05-02T14:57:42.001Z</time></trkpt><trkpt lat="45.9045633149087" lon="10.359021302002859"><ele>1485.0</ele><time>2026-05-02T14:57:47.001Z</time></trkpt><trkpt lat="45.90451001967728" lon="10.358971604190655"><ele>1485.0</ele><time>2026-05-02T14:57:51.001Z</time></trkpt><trkpt lat="45.90444621914508" lon="10.358908018214104"><ele>1485.0</ele><time>2026-05-02T14:57:55.001Z</time></trkpt><trkpt lat="45.904390388312656" lon="10.358825793767426"><ele>1485.0</ele><time>2026-05-02T14:57:58.001Z</time></trkpt><trkpt lat="45.90436788221748" lon="10.358740324210839"><ele>1485.0</ele><time>2026-05-02T14:58:01.001Z</time></trkpt><trkpt lat="45.90435285200093" lon="10.358630885986173"><ele>1485.2857142857142</ele><time>2026-05-02T14:58:04.001Z</time></trkpt><trkpt lat="45.90431694655171" lon="10.358519780144858"><ele>1485.5714285714287</ele><time>2026-05-02T14:58:07.002Z</time></trkpt><trkpt lat="45.90428191912481" lon="10.358443392738954"><ele>1485.8571428571427</ele><time>2026-05-02T14:58:10.002Z</time></trkpt><trkpt lat="45.904245092686544" lon="10.358345203876427"><ele>1486.142857142857</ele><time>2026-05-02T14:58:13.002Z</time></trkpt><trkpt lat="45.90422395616746" lon="10.358236746118111"><ele>1486.4285714285713</ele><time>2026-05-02T14:58:16.002Z</time></trkpt><trkpt lat="45.904202083028736" lon="10.358151375598801"><ele>1486.7142857142856</ele><time>2026-05-02T14:58:20.002Z</time></trkpt><trkpt lat="45.90417885836097" lon="10.358066760665032"><ele>1487.0</ele><time>2026-05-02T14:58:23.002Z</time></trkpt><trkpt lat="45.90414816700236" lon="10.35796657048517"><ele>1483.142857142857</ele><time>2026-05-02T14:58:26.002Z</time></trkpt><trkpt lat="45.9041179750701" lon="10.357879815575355"><ele>1479.2857142857142</ele><time>2026-05-02T14:58:29.002Z</time></trkpt><trkpt lat="45.90408364490714" lon="10.35777619423031"><ele>1475.4285714285716</ele><time>2026-05-02T14:58:32.002Z</time></trkpt><trkpt lat="45.90404978424047" lon="10.35769071745277"><ele>1471.5714285714284</ele><time>2026-05-02T14:58:35.002Z</time></trkpt><trkpt lat="45.9039783953861" lon="10.357643660128"><ele>1467.7142857142858</ele><time>2026-05-02T14:58:39.002Z</time></trkpt><trkpt lat="45.90390710545353" lon="10.357651493182562"><ele>1463.857142857143</ele><time>2026-05-02T14:58:43.001Z</time></trkpt><trkpt lat="45.903837339015574" lon="10.357648828766846"><ele>1460.0</ele><time>2026-05-02T14:58:45.001Z</time></trkpt><trkpt lat="45.903771556707994" lon="10.357646944448934"><ele>1460.0</ele><time>2026-05-02T14:58:47.001Z</time></trkpt><trkpt lat="45.90368521446879" lon="10.35769278921651"><ele>1460.0</ele><time>2026-05-02T14:58:50.001Z</time></trkpt><trkpt lat="45.90361797755467" lon="10.35766929588152"><ele>1460.0</ele><time>2026-05-02T14:58:52.001Z</time></trkpt><trkpt lat="45.90356781765146" lon="10.357584936473357"><ele>1460.0</ele><time>2026-05-02T14:58:55.001Z</time></trkpt><trkpt lat="45.90354250202411" lon="10.357470337854298"><ele>1460.0</ele><time>2026-05-02T14:58:58.001Z</time></trkpt><trkpt lat="45.903514709758596" lon="10.357388404273268"><ele>1460.0</ele><time>2026-05-02T14:59:01.001Z</time></trkpt><trkpt lat="45.90346535165918" lon="10.357301957989373"><ele>1456.1428571428573</ele><time>2026-05-02T14:59:05.001Z</time></trkpt><trkpt lat="45.90340572299775" lon="10.357249676713257"><ele>1452.2857142857142</ele><time>2026-05-02T14:59:08.001Z</time></trkpt><trkpt lat="45.903360869146866" lon="10.357181097583817"><ele>1448.4285714285716</ele><time>2026-05-02T14:59:15.001Z</time></trkpt><trkpt lat="45.90331873504095" lon="10.357070268776152"><ele>1444.5714285714287</ele><time>2026-05-02T15:00:10.001Z</time></trkpt><trkpt lat="45.903289641763145" lon="10.356970682548647"><ele>1440.7142857142858</ele><time>2026-05-02T15:00:12.001Z</time></trkpt><trkpt lat="45.90326812267361" lon="10.356878742329679"><ele>1436.857142857143</ele><time>2026-05-02T15:00:15.001Z</time></trkpt><trkpt lat="45.90326160642039" lon="10.35676435635661"><ele>1433.0</ele><time>2026-05-02T15:00:17.001Z</time></trkpt><trkpt lat="45.903251116219124" lon="10.356633622847712"><ele>1432.4285714285713</ele><time>2026-05-02T15:00:20.001Z</time></trkpt><trkpt lat="45.903260344792" lon="10.356541906221027"><ele>1431.857142857143</ele><time>2026-05-02T15:00:22.001Z</time></trkpt><trkpt lat="45.90327874055651" lon="10.356442301078314"><ele>1431.2857142857142</ele><time>2026-05-02T15:00:25.001Z</time></trkpt><trkpt lat="45.90329069655957" lon="10.356346128761516"><ele>1430.7142857142858</ele><time>2026-05-02T15:00:29.001Z</time></trkpt><trkpt lat="45.903265967765655" lon="10.356230747731217"><ele>1430.142857142857</ele><time>2026-05-02T15:00:31.001Z</time></trkpt><trkpt lat="45.90323753836511" lon="10.35613741874462"><ele>1429.5714285714287</ele><time>2026-05-02T15:00:34.001Z</time></trkpt><trkpt lat="45.903201952591814" lon="10.356043543739778"><ele>1429.0</ele><time>2026-05-02T15:00:38.001Z</time></trkpt><trkpt lat="45.90316743866776" lon="10.355955073257755"><ele>1428.3333333333333</ele><time>2026-05-02T15:00:42.001Z</time></trkpt><trkpt lat="45.90313374532288" lon="10.355851682417573"><ele>1427.6666666666665</ele><time>2026-05-02T15:00:45.001Z</time></trkpt><trkpt lat="45.90310540044828" lon="10.35575040903928"><ele>1427.0</ele><time>2026-05-02T15:00:49.999Z</time></trkpt><trkpt lat="45.90310704198521" lon="10.355638347926352"><ele>1426.3333333333333</ele><time>2026-05-02T15:00:53.999Z</time></trkpt><trkpt lat="45.903097192475386" lon="10.355540026175293"><ele>1425.6666666666667</ele><time>2026-05-02T15:00:56.999Z</time></trkpt><trkpt lat="45.90309743092962" lon="10.355429403768907"><ele>1425.0</ele><time>2026-05-02T15:00:59.999Z</time></trkpt><trkpt lat="45.90307981042705" lon="10.355314571961417"><ele>1424.1666666666667</ele><time>2026-05-02T15:01:02.999Z</time></trkpt><trkpt lat="45.9030637999941" lon="10.355209028655493"><ele>1423.3333333333333</ele><time>2026-05-02T15:01:05.999Z</time></trkpt><trkpt lat="45.90305247909502" lon="10.355080603267039"><ele>1422.5</ele><time>2026-05-02T15:01:08.999Z</time></trkpt><trkpt lat="45.90304401657089" lon="10.35498044521281"><ele>1421.6666666666665</ele><time>2026-05-02T15:01:10.999Z</time></trkpt><trkpt lat="45.90303108157246" lon="10.354886357829445"><ele>1420.8333333333333</ele><time>2026-05-02T15:01:12.999Z</time></trkpt><trkpt lat="45.902995050032864" lon="10.354776505004933"><ele>1420.0</ele><time>2026-05-02T15:01:16Z</time></trkpt><trkpt lat="45.902961265279785" lon="10.354665695116804"><ele>1419.8333333333333</ele><time>2026-05-02T15:01:19Z</time></trkpt><trkpt lat="45.902929572225744" lon="10.354581529015645"><ele>1419.6666666666665</ele><time>2026-05-02T15:01:21Z</time></trkpt><trkpt lat="45.902900006994486" lon="10.354474379075677"><ele>1419.5</ele><time>2026-05-02T15:01:24Z</time></trkpt><trkpt lat="45.90289351200986" lon="10.354350218067792"><ele>1419.3333333333333</ele><time>2026-05-02T15:01:41Z</time></trkpt><trkpt lat="45.902885539858374" lon="10.354243829160007"><ele>1419.1666666666667</ele><time>2026-05-02T15:01:46Z</time></trkpt><trkpt lat="45.90285746105663" lon="10.354143403498988"><ele>1419.0</ele><time>2026-05-02T15:01:49Z</time></trkpt><trkpt lat="45.902772564071206" lon="10.354110919610031"><ele>1419.0</ele><time>2026-05-02T15:01:51Z</time></trkpt><trkpt lat="45.90273673245571" lon="10.354025436855984"><ele>1419.0</ele><time>2026-05-02T15:01:54Z</time></trkpt><trkpt lat="45.902726736286404" lon="10.35392793649126"><ele>1419.0</ele><time>2026-05-02T15:01:57Z</time></trkpt><trkpt lat="45.902715578737165" lon="10.353828233133372"><ele>1419.0</ele><time>2026-05-02T15:02:00Z</time></trkpt><trkpt lat="45.902727824420175" lon="10.353736803184608"><ele>1419.0</ele><time>2026-05-02T15:02:05Z</time></trkpt><trkpt lat="45.90272692499225" lon="10.353634618916466"><ele>1419.0</ele><time>2026-05-02T15:02:08Z</time></trkpt><trkpt lat="45.90273008417953" lon="10.35354068195441"><ele>1419.0</ele><time>2026-05-02T15:02:13Z</time></trkpt><trkpt lat="45.90272334070366" lon="10.35344280374002"><ele>1420.0</ele><time>2026-05-02T15:02:16.001Z</time></trkpt><trkpt lat="45.90270877830694" lon="10.35332823067293"><ele>1421.0</ele><time>2026-05-02T15:02:21.001Z</time></trkpt><trkpt lat="45.902684610269226" lon="10.353224908865046"><ele>1422.0</ele><time>2026-05-02T15:02:24.001Z</time></trkpt><trkpt lat="45.902643740573325" lon="10.353140510653484"><ele>1423.0</ele><time>2026-05-02T15:02:27.001Z</time></trkpt><trkpt lat="45.9026174407205" lon="10.353045359704048"><ele>1424.0</ele><time>2026-05-02T15:02:31.001Z</time></trkpt><trkpt lat="45.902572041893414" lon="10.352951297231085"><ele>1425.0</ele><time>2026-05-02T15:02:34.001Z</time></trkpt><trkpt lat="45.90253242531039" lon="10.35284215649077"><ele>1421.5</ele><time>2026-05-02T15:02:37.001Z</time></trkpt><trkpt lat="45.90248181000056" lon="10.352767267747671"><ele>1418.0</ele><time>2026-05-02T15:02:40.001Z</time></trkpt><trkpt lat="45.90242316038081" lon="10.352709551650186"><ele>1414.5</ele><time>2026-05-02T15:02:43.001Z</time></trkpt><trkpt lat="45.9023587561675" lon="10.352605667785703"><ele>1411.0</ele><time>2026-05-02T15:02:46.001Z</time></trkpt><trkpt lat="45.90233628774532" lon="10.352479693170713"><ele>1407.5</ele><time>2026-05-02T15:02:49.001Z</time></trkpt><trkpt lat="45.902318540388784" lon="10.352358394303455"><ele>1404.0</ele><time>2026-05-02T15:02:52.001Z</time></trkpt><trkpt lat="45.90229869591105" lon="10.35226397853126"><ele>1405.8333333333333</ele><time>2026-05-02T15:02:54.001Z</time></trkpt><trkpt lat="45.90225743460819" lon="10.352159275892854"><ele>1407.6666666666667</ele><time>2026-05-02T15:02:57Z</time></trkpt><trkpt lat="45.90221806505027" lon="10.35208683322057"><ele>1409.5</ele><time>2026-05-02T15:02:59Z</time></trkpt><trkpt lat="45.90216875892581" lon="10.351990050968116"><ele>1411.3333333333335</ele><time>2026-05-02T15:03:02Z</time></trkpt><trkpt lat="45.902130686021955" lon="10.351884262775133"><ele>1413.1666666666667</ele><time>2026-05-02T15:03:05Z</time></trkpt><trkpt lat="45.902099680594986" lon="10.351766580443789"><ele>1415.0</ele><time>2026-05-02T15:03:08Z</time></trkpt><trkpt lat="45.90207696560647" lon="10.351675923088871"><ele>1415.0</ele><time>2026-05-02T15:03:11Z</time></trkpt><trkpt lat="45.90204755940045" lon="10.351567251465077"><ele>1415.0</ele><time>2026-05-02T15:03:14Z</time></trkpt><trkpt lat="45.9020406096491" lon="10.351439409164914"><ele>1415.0</ele><time>2026-05-02T15:03:17Z</time></trkpt><trkpt lat="45.902008542772776" lon="10.351314681398666"><ele>1415.0</ele><time>2026-05-02T15:03:20Z</time></trkpt><trkpt lat="45.90197840941762" lon="10.351203478699533"><ele>1415.0</ele><time>2026-05-02T15:03:25Z</time></trkpt><trkpt lat="45.901952475466594" lon="10.351087050065997"><ele>1415.0</ele><time>2026-05-02T15:03:28.001Z</time></trkpt><trkpt lat="45.901911854272676" lon="10.350990012884726"><ele>1415.5714285714287</ele><time>2026-05-02T15:03:30.001Z</time></trkpt><trkpt lat="45.90189400376864" lon="10.350888941156764"><ele>1416.142857142857</ele><time>2026-05-02T15:03:32.001Z</time></trkpt><trkpt lat="45.90188565450559" lon="10.350783670572095"><ele>1416.7142857142858</ele><time>2026-05-02T15:03:34.001Z</time></trkpt><trkpt lat="45.901862948494895" lon="10.35069211956129"><ele>1417.2857142857142</ele><time>2026-05-02T15:03:36.001Z</time></trkpt><trkpt lat="45.90182427026973" lon="10.350573556662804"><ele>1417.857142857143</ele><time>2026-05-02T15:03:39.001Z</time></trkpt><trkpt lat="45.90178296317701" lon="10.350489768637313"><ele>1418.4285714285713</ele><time>2026-05-02T15:03:41.001Z</time></trkpt><trkpt lat="45.90174504562191" lon="10.35041578936773"><ele>1419.0</ele><time>2026-05-02T15:03:44.001Z</time></trkpt><trkpt lat="45.90170456810475" lon="10.350328636331302"><ele>1412.6666666666667</ele><time>2026-05-02T15:03:48.001Z</time></trkpt><trkpt lat="45.901675354687605" lon="10.350243440865055"><ele>1406.3333333333333</ele><time>2026-05-02T15:03:52.001Z</time></trkpt><trkpt lat="45.901652327340656" lon="10.35014693143142"><ele>1400.0</ele><time>2026-05-02T15:03:56.001Z</time></trkpt><trkpt lat="45.90163290431405" lon="10.350034685211659"><ele>1393.6666666666665</ele><time>2026-05-02T15:04:00.001Z</time></trkpt><trkpt lat="45.90161753153033" lon="10.349921555303403"><ele>1387.3333333333333</ele><time>2026-05-02T15:04:03.001Z</time></trkpt><trkpt lat="45.90160457511159" lon="10.349807149912332"><ele>1381.0</ele><time>2026-05-02T15:04:06.001Z</time></trkpt><trkpt lat="45.901594223784684" lon="10.349700470353717"><ele>1379.5714285714287</ele><time>2026-05-02T15:04:09.001Z</time></trkpt><trkpt lat="45.9015909945831" lon="10.349608823072373"><ele>1378.142857142857</ele><time>2026-05-02T15:04:12.001Z</time></trkpt><trkpt lat="45.901592900978045" lon="10.349500698502467"><ele>1376.7142857142858</ele><time>2026-05-02T15:04:16.001Z</time></trkpt><trkpt lat="45.9016020340985" lon="10.34938638291761"><ele>1375.2857142857142</ele><time>2026-05-02T15:04:20.001Z</time></trkpt><trkpt lat="45.90160236881058" lon="10.34927397233594"><ele>1373.857142857143</ele><time>2026-05-02T15:04:24.001Z</time></trkpt><trkpt lat="45.901641793568544" lon="10.349182400083151"><ele>1372.4285714285713</ele><time>2026-05-02T15:04:28.001Z</time></trkpt><trkpt lat="45.90167340050068" lon="10.349098522646404"><ele>1371.0</ele><time>2026-05-02T15:04:31.001Z</time></trkpt><trkpt lat="45.90169667873168" lon="10.349013977586088"><ele>1371.0</ele><time>2026-05-02T15:04:35.001Z</time></trkpt><trkpt lat="45.901690094715555" lon="10.348914911272264"><ele>1371.0</ele><time>2026-05-02T15:04:38.001Z</time></trkpt><trkpt lat="45.90167610946067" lon="10.348813984344861"><ele>1371.0</ele><time>2026-05-02T15:04:41.001Z</time></trkpt><trkpt lat="45.901673197159305" lon="10.348712687940452"><ele>1371.0</ele><time>2026-05-02T15:04:46.001Z</time></trkpt><trkpt lat="45.90166607248323" lon="10.34861962610349"><ele>1371.0</ele><time>2026-05-02T15:04:50.001Z</time></trkpt><trkpt lat="45.901654003931206" lon="10.348519789428739"><ele>1371.0</ele><time>2026-05-02T15:04:53.001Z</time></trkpt><trkpt lat="45.901651091902544" lon="10.34842878283814"><ele>1371.0</ele><time>2026-05-02T15:04:56.002Z</time></trkpt><trkpt lat="45.901707198644694" lon="10.348360149717562"><ele>1370.5</ele><time>2026-05-02T15:05:00.002Z</time></trkpt><trkpt lat="45.90170648649082" lon="10.348262475133986"><ele>1370.0</ele><time>2026-05-02T15:05:04.001Z</time></trkpt><trkpt lat="45.90172561062875" lon="10.348167574516571"><ele>1369.5</ele><time>2026-05-02T15:05:07.001Z</time></trkpt><trkpt lat="45.90172156942904" lon="10.348022105299483"><ele>1369.0</ele><time>2026-05-02T15:05:10.001Z</time></trkpt><trkpt lat="45.90171849126906" lon="10.347918224632187"><ele>1368.5</ele><time>2026-05-02T15:05:12.001Z</time></trkpt><trkpt lat="45.9017140107323" lon="10.347816685926457"><ele>1368.0</ele><time>2026-05-02T15:05:15.001Z</time></trkpt><trkpt lat="45.9017088653742" lon="10.347716113981688"><ele>1366.0</ele><time>2026-05-02T15:05:19.001Z</time></trkpt><trkpt lat="45.90169056367665" lon="10.347617632406335"><ele>1364.0</ele><time>2026-05-02T15:05:25.001Z</time></trkpt><trkpt lat="45.901677147703055" lon="10.347498107560588"><ele>1362.0</ele><time>2026-05-02T15:05:29.001Z</time></trkpt><trkpt lat="45.901667325155074" lon="10.347402028096525"><ele>1360.0</ele><time>2026-05-02T15:05:32.001Z</time></trkpt><trkpt lat="45.90165872569385" lon="10.347300205834562"><ele>1358.0</ele><time>2026-05-02T15:05:34.001Z</time></trkpt><trkpt lat="45.901641406933535" lon="10.34717293574994"><ele>1356.0</ele><time>2026-05-02T15:05:37.001Z</time></trkpt><trkpt lat="45.90163216108792" lon="10.347078066546132"><ele>1354.5</ele><time>2026-05-02T15:05:39.001Z</time></trkpt><trkpt lat="45.901628720050866" lon="10.346955767978944"><ele>1353.0</ele><time>2026-05-02T15:05:42.001Z</time></trkpt><trkpt lat="45.90163379816158" lon="10.34685717638819"><ele>1351.5</ele><time>2026-05-02T15:05:45.001Z</time></trkpt><trkpt lat="45.90163622058548" lon="10.346745104895431"><ele>1350.0</ele><time>2026-05-02T15:05:48.001Z</time></trkpt><trkpt lat="45.90161431180343" lon="10.346631250834438"><ele>1348.5</ele><time>2026-05-02T15:05:51.001Z</time></trkpt><trkpt lat="45.90159307585434" lon="10.34649331713719"><ele>1347.0</ele><time>2026-05-02T15:05:54.001Z</time></trkpt><trkpt lat="45.90155511737078" lon="10.346386943916123"><ele>1345.0</ele><time>2026-05-02T15:05:57.001Z</time></trkpt><trkpt lat="45.90149792350676" lon="10.346329132570645"><ele>1343.0</ele><time>2026-05-02T15:05:59.001Z</time></trkpt><trkpt lat="45.901442782524896" lon="10.346274953750678"><ele>1341.0</ele><time>2026-05-02T15:06:01.001Z</time></trkpt><trkpt lat="45.90142149480646" lon="10.346153716584702"><ele>1339.0</ele><time>2026-05-02T15:06:04.001Z</time></trkpt><trkpt lat="45.90144837646731" lon="10.346054515133238"><ele>1337.0</ele><time>2026-05-02T15:06:07.001Z</time></trkpt><trkpt lat="45.90147077225056" lon="10.345946967490532"><ele>1335.0</ele><time>2026-05-02T15:06:10.001Z</time></trkpt><trkpt lat="45.90143963182821" lon="10.345824861654878"><ele>1335.0</ele><time>2026-05-02T15:06:13.001Z</time></trkpt><trkpt lat="45.90139752464848" lon="10.345750891270207"><ele>1335.0</ele><time>2026-05-02T15:06:15.001Z</time></trkpt><trkpt lat="45.90135491870005" lon="10.34566618453222"><ele>1335.0</ele><time>2026-05-02T15:06:18.001Z</time></trkpt><trkpt lat="45.90133840820565" lon="10.345570324219102"><ele>1335.0</ele><time>2026-05-02T15:06:21.001Z</time></trkpt><trkpt lat="45.90135941893097" lon="10.34547756818849"><ele>1335.0</ele><time>2026-05-02T15:06:24.001Z</time></trkpt><trkpt lat="45.901402354830275" lon="10.345307356334212"><ele>1335.0</ele><time>2026-05-02T15:06:29.001Z</time></trkpt><trkpt lat="45.90139426962393" lon="10.345215145260642"><ele>1333.25</ele><time>2026-05-02T15:06:31.001Z</time></trkpt><trkpt lat="45.90138224585643" lon="10.345104912666752"><ele>1331.5</ele><time>2026-05-02T15:06:33.001Z</time></trkpt><trkpt lat="45.90136165362404" lon="10.344969445742162"><ele>1329.75</ele><time>2026-05-02T15:06:36.001Z</time></trkpt><trkpt lat="45.90134846922004" lon="10.344851571244957"><ele>1328.0</ele><time>2026-05-02T15:06:39.001Z</time></trkpt><trkpt lat="45.90101413750814" lon="10.344804667787422"><ele>1328.0</ele><time>2026-05-02T15:06:46.001Z</time></trkpt><trkpt lat="45.9009860987942" lon="10.3449176167624"><ele>1328.0</ele><time>2026-05-02T15:06:49.001Z</time></trkpt><trkpt lat="45.900975740691294" lon="10.345035267583972"><ele>1328.0</ele><time>2026-05-02T15:06:52.001Z</time></trkpt><trkpt lat="45.90093895715996" lon="10.345127023127349"><ele>1328.0</ele><time>2026-05-02T15:06:56.001Z</time></trkpt><trkpt lat="45.90092967142885" lon="10.345256674528645"><ele>1328.0</ele><time>2026-05-02T15:06:59.001Z</time></trkpt><trkpt lat="45.90090216840969" lon="10.345415516559111"><ele>1328.0</ele><time>2026-05-02T15:07:02.001Z</time></trkpt><trkpt lat="45.90093466022292" lon="10.34552083861589"><ele>1329.1666666666667</ele><time>2026-05-02T15:07:05.001Z</time></trkpt><trkpt lat="45.900934485310835" lon="10.345633879332116"><ele>1330.3333333333335</ele><time>2026-05-02T15:07:08Z</time></trkpt><trkpt lat="45.90086318807556" lon="10.345629256450854"><ele>1331.5</ele><time>2026-05-02T15:07:12Z</time></trkpt><trkpt lat="45.900839296344465" lon="10.345538474118966"><ele>1332.6666666666667</ele><time>2026-05-02T15:07:15Z</time></trkpt><trkpt lat="45.900777719554114" lon="10.345438929360812"><ele>1333.8333333333333</ele><time>2026-05-02T15:07:19Z</time></trkpt><trkpt lat="45.90074345449976" lon="10.34535047963358"><ele>1335.0</ele><time>2026-05-02T15:07:24Z</time></trkpt><trkpt lat="45.9007611396244" lon="10.345245285273238"><ele>1339.3333333333333</ele><time>2026-05-02T15:07:29Z</time></trkpt><trkpt lat="45.900709501508544" lon="10.345140263271048"><ele>1343.6666666666667</ele><time>2026-05-02T15:07:32Z</time></trkpt><trkpt lat="45.90066325224251" lon="10.345069211583139"><ele>1348.0</ele><time>2026-05-02T15:07:34Z</time></trkpt><trkpt lat="45.900619850246905" lon="10.344976001895912"><ele>1352.3333333333335</ele><time>2026-05-02T15:07:37Z</time></trkpt><trkpt lat="45.90060314050448" lon="10.344852023739495"><ele>1356.6666666666667</ele><time>2026-05-02T15:07:41Z</time></trkpt><trkpt lat="45.900581258878695" lon="10.344758105371518"><ele>1361.0</ele><time>2026-05-02T15:07:45Z</time></trkpt><trkpt lat="45.9005403729886" lon="10.344687885668295"><ele>1360.9999999999998</ele><time>2026-05-02T15:07:48Z</time></trkpt><trkpt lat="45.900464825294236" lon="10.344688813094118"><ele>1361.0</ele><time>2026-05-02T15:07:52Z</time></trkpt><trkpt lat="45.9004074681321" lon="10.344742764151466"><ele>1361.0</ele><time>2026-05-02T15:07:55Z</time></trkpt><trkpt lat="45.90034786134857" lon="10.344794458582767"><ele>1361.0</ele><time>2026-05-02T15:07:58Z</time></trkpt><trkpt lat="45.90029896085373" lon="10.344875776802343"><ele>1361.0</ele><time>2026-05-02T15:08:01Z</time></trkpt><trkpt lat="45.900263360821285" lon="10.344968201966024"><ele>1360.9999999999998</ele><time>2026-05-02T15:08:04Z</time></trkpt><trkpt lat="45.90021420322407" lon="10.345044260749516"><ele>1361.0</ele><time>2026-05-02T15:08:07Z</time></trkpt><trkpt lat="45.900151633504244" lon="10.345144611929612"><ele>1361.0</ele><time>2026-05-02T15:08:10Z</time></trkpt><trkpt lat="45.90009796407549" lon="10.345231042612554"><ele>1361.0</ele><time>2026-05-02T15:08:13Z</time></trkpt><trkpt lat="45.900051362050064" lon="10.345318314959886"><ele>1361.0</ele><time>2026-05-02T15:08:16.001Z</time></trkpt><trkpt lat="45.90001236849843" lon="10.345412329999792"><ele>1361.0</ele><time>2026-05-02T15:08:20.001Z</time></trkpt><trkpt lat="45.89997578917786" lon="10.345491464823176"><ele>1361.0</ele><time>2026-05-02T15:08:23.001Z</time></trkpt><trkpt lat="45.899917745863746" lon="10.345579196692453"><ele>1361.0</ele><time>2026-05-02T15:08:26.001Z</time></trkpt><trkpt lat="45.89988860992184" lon="10.345690664714423"><ele>1365.1666666666667</ele><time>2026-05-02T15:08:30.001Z</time></trkpt><trkpt lat="45.89985284439671" lon="10.345772844291464"><ele>1369.3333333333335</ele><time>2026-05-02T15:08:34.001Z</time></trkpt><trkpt lat="45.89979681979426" lon="10.34581795624425"><ele>1373.5</ele><time>2026-05-02T15:08:36.001Z</time></trkpt><trkpt lat="45.89974279220293" lon="10.345896316254139"><ele>1377.6666666666667</ele><time>2026-05-02T15:08:40.001Z</time></trkpt><trkpt lat="45.899709729715035" lon="10.345802677719092"><ele>1381.8333333333333</ele><time>2026-05-02T15:08:43.001Z</time></trkpt><trkpt lat="45.899664413440675" lon="10.34572978580789"><ele>1386.0</ele><time>2026-05-02T15:08:46.001Z</time></trkpt><trkpt lat="45.899587219995226" lon="10.34558801199786"><ele>1387.8333333333333</ele><time>2026-05-02T15:08:50.001Z</time></trkpt><trkpt lat="45.89961377010658" lon="10.345497762865977"><ele>1389.6666666666667</ele><time>2026-05-02T15:08:52.001Z</time></trkpt><trkpt lat="45.89962364277059" lon="10.345391798203433"><ele>1391.5</ele><time>2026-05-02T15:08:53.001Z</time></trkpt><trkpt lat="45.89962661584892" lon="10.345250930113874"><ele>1393.3333333333335</ele><time>2026-05-02T15:08:57.001Z</time></trkpt><trkpt lat="45.89960687228213" lon="10.345161345404668"><ele>1395.1666666666667</ele><time>2026-05-02T15:08:59.001Z</time></trkpt><trkpt lat="45.89958898610517" lon="10.345048078232393"><ele>1397.0</ele><time>2026-05-02T15:09:02.001Z</time></trkpt><trkpt lat="45.89961659275484" lon="10.344940062176448"><ele>1397.0</ele><time>2026-05-02T15:09:05.001Z</time></trkpt><trkpt lat="45.89960778331138" lon="10.344829142299332"><ele>1397.0</ele><time>2026-05-02T15:09:08.001Z</time></trkpt><trkpt lat="45.899607390257636" lon="10.344680831745169"><ele>1397.0</ele><time>2026-05-02T15:09:12.001Z</time></trkpt><trkpt lat="45.89960802671395" lon="10.344547496909955"><ele>1397.0</ele><time>2026-05-02T15:09:16Z</time></trkpt><trkpt lat="45.899613177886955" lon="10.344434195618616"><ele>1397.0</ele><time>2026-05-02T15:09:18Z</time></trkpt><trkpt lat="45.8996223600387" lon="10.344325426396027"><ele>1397.0</ele><time>2026-05-02T15:09:21Z</time></trkpt><trkpt lat="45.89962567751882" lon="10.344229456228998"><ele>1398.8333333333335</ele><time>2026-05-02T15:09:24Z</time></trkpt><trkpt lat="45.89960386079384" lon="10.344115632623458"><ele>1400.6666666666667</ele><time>2026-05-02T15:09:27Z</time></trkpt><trkpt lat="45.89957828090073" lon="10.344000404635066"><ele>1402.5</ele><time>2026-05-02T15:09:30Z</time></trkpt><trkpt lat="45.89956948123251" lon="10.343906394174754"><ele>1404.3333333333333</ele><time>2026-05-02T15:09:33Z</time></trkpt><trkpt lat="45.899563418214136" lon="10.343813596547522"><ele>1406.1666666666665</ele><time>2026-05-02T15:09:36Z</time></trkpt><trkpt lat="45.89959996153968" lon="10.343723137355676"><ele>1408.0</ele><time>2026-05-02T15:09:39Z</time></trkpt><trkpt lat="45.89964408255854" lon="10.343613747411815"><ele>1409.142857142857</ele><time>2026-05-02T15:09:42Z</time></trkpt><trkpt lat="45.89965113919491" lon="10.343519894654712"><ele>1410.2857142857142</ele><time>2026-05-02T15:09:45Z</time></trkpt><trkpt lat="45.8996441601717" lon="10.343417004634768"><ele>1411.4285714285716</ele><time>2026-05-02T15:09:48Z</time></trkpt><trkpt lat="45.89965954048291" lon="10.343326467339173"><ele>1412.5714285714284</ele><time>2026-05-02T15:09:52Z</time></trkpt><trkpt lat="45.89960969863998" lon="10.343260239132618"><ele>1413.7142857142856</ele><time>2026-05-02T15:10:06.001Z</time></trkpt><trkpt lat="45.899559487826664" lon="10.343329103661501"><ele>1414.857142857143</ele><time>2026-05-02T15:10:11.001Z</time></trkpt><trkpt lat="45.899520765758695" lon="10.343414521430159"><ele>1416.0</ele><time>2026-05-02T15:10:16.001Z</time></trkpt><trkpt lat="45.89949399309198" lon="10.343513829545477"><ele>1416.0</ele><time>2026-05-02T15:10:22.001Z</time></trkpt><trkpt lat="45.89945830198071" lon="10.343626185338051"><ele>1416.0</ele><time>2026-05-02T15:10:26.001Z</time></trkpt><trkpt lat="45.89941558153589" lon="10.343730997229795"><ele>1416.0</ele><time>2026-05-02T15:10:30.001Z</time></trkpt><trkpt lat="45.89939255068931" lon="10.343832930559957"><ele>1416.0</ele><time>2026-05-02T15:10:34.001Z</time></trkpt><trkpt lat="45.899346159399464" lon="10.34391912016818"><ele>1416.0</ele><time>2026-05-02T15:10:37.001Z</time></trkpt><trkpt lat="45.89931419212491" lon="10.344006121969448"><ele>1416.0</ele><time>2026-05-02T15:10:39.001Z</time></trkpt><trkpt lat="45.899263491628815" lon="10.34408661038296"><ele>1424.6666666666667</ele><time>2026-05-02T15:10:41.001Z</time></trkpt><trkpt lat="45.89922193668206" lon="10.344162885569936"><ele>1433.3333333333333</ele><time>2026-05-02T15:10:43.001Z</time></trkpt><trkpt lat="45.899173358323495" lon="10.344243041322907"><ele>1442.0</ele><time>2026-05-02T15:10:45.001Z</time></trkpt><trkpt lat="45.899118281838426" lon="10.344348273932516"><ele>1450.6666666666665</ele><time>2026-05-02T15:10:48.001Z</time></trkpt><trkpt lat="45.89906394009572" lon="10.34445221155016"><ele>1459.3333333333333</ele><time>2026-05-02T15:10:51.001Z</time></trkpt><trkpt lat="45.899028120408886" lon="10.344538465685979"><ele>1468.0</ele><time>2026-05-02T15:10:54.001Z</time></trkpt><trkpt lat="45.898990796301156" lon="10.344635440713835"><ele>1466.1666666666665</ele><time>2026-05-02T15:10:56.001Z</time></trkpt><trkpt lat="45.89894567822818" lon="10.344739044493167"><ele>1464.3333333333333</ele><time>2026-05-02T15:10:59.001Z</time></trkpt><trkpt lat="45.89891057912843" lon="10.344857241972463"><ele>1462.5</ele><time>2026-05-02T15:11:02.001Z</time></trkpt><trkpt lat="45.89888913429778" lon="10.344942414550092"><ele>1460.6666666666667</ele><time>2026-05-02T15:11:04.001Z</time></trkpt><trkpt lat="45.898854250472326" lon="10.345059928974086"><ele>1458.8333333333335</ele><time>2026-05-02T15:11:07.001Z</time></trkpt><trkpt lat="45.89882991083138" lon="10.345157708908747"><ele>1457.0</ele><time>2026-05-02T15:11:09.001Z</time></trkpt><trkpt lat="45.898773153158764" lon="10.345269542726303"><ele>1457.0</ele><time>2026-05-02T15:11:12.001Z</time></trkpt><trkpt lat="45.898741442840446" lon="10.345366927541688"><ele>1457.0</ele><time>2026-05-02T15:11:14.001Z</time></trkpt><trkpt lat="45.898700640168585" lon="10.345459423179454"><ele>1457.0</ele><time>2026-05-02T15:11:16.001Z</time></trkpt><trkpt lat="45.89868894518088" lon="10.345558703383771"><ele>1457.0</ele><time>2026-05-02T15:11:18.001Z</time></trkpt><trkpt lat="45.89864527303038" lon="10.345633278931636"><ele>1457.0</ele><time>2026-05-02T15:11:20.001Z</time></trkpt><trkpt lat="45.89858911212202" lon="10.345697570551758"><ele>1457.0</ele><time>2026-05-02T15:11:22.001Z</time></trkpt><trkpt lat="45.898524065668774" lon="10.345752726464518"><ele>1457.0</ele><time>2026-05-02T15:11:25.001Z</time></trkpt><trkpt lat="45.89846111377705" lon="10.345820139763633"><ele>1464.1666666666667</ele><time>2026-05-02T15:11:29.001Z</time></trkpt><trkpt lat="45.89841321822472" lon="10.34591164920973"><ele>1471.3333333333335</ele><time>2026-05-02T15:11:32.001Z</time></trkpt><trkpt lat="45.898360341012385" lon="10.345987963178908"><ele>1478.5</ele><time>2026-05-02T15:11:34.001Z</time></trkpt><trkpt lat="45.89829990277843" lon="10.346089630970093"><ele>1485.6666666666667</ele><time>2026-05-02T15:11:37.001Z</time></trkpt><trkpt lat="45.898253458190766" lon="10.346191929373092"><ele>1492.8333333333333</ele><time>2026-05-02T15:11:40.001Z</time></trkpt><trkpt lat="45.89821904821409" lon="10.346274008527997"><ele>1500.0</ele><time>2026-05-02T15:11:41.001Z</time></trkpt><trkpt lat="45.89819564339048" lon="10.34636708956041"><ele>1498.6666666666667</ele><time>2026-05-02T15:11:43.001Z</time></trkpt><trkpt lat="45.89817822392185" lon="10.346464110513143"><ele>1497.3333333333333</ele><time>2026-05-02T15:11:45.001Z</time></trkpt><trkpt lat="45.89816136834156" lon="10.346553311786918"><ele>1496.0</ele><time>2026-05-02T15:11:47.001Z</time></trkpt><trkpt lat="45.89815794361184" lon="10.346696903498565"><ele>1494.6666666666665</ele><time>2026-05-02T15:11:50.001Z</time></trkpt><trkpt lat="45.89816668777868" lon="10.34679623673283"><ele>1493.3333333333333</ele><time>2026-05-02T15:11:52.001Z</time></trkpt><trkpt lat="45.898153772857746" lon="10.346907760869154"><ele>1492.0</ele><time>2026-05-02T15:11:54.001Z</time></trkpt><trkpt lat="45.89814665662142" lon="10.34703469906549"><ele>1492.0</ele><time>2026-05-02T15:11:57.001Z</time></trkpt><trkpt lat="45.89811755085201" lon="10.347116224351133"><ele>1492.0</ele><time>2026-05-02T15:11:59.001Z</time></trkpt><trkpt lat="45.89807781782536" lon="10.34719663724162"><ele>1492.0</ele><time>2026-05-02T15:12:01.001Z</time></trkpt><trkpt lat="45.89803038537306" lon="10.34727766161192"><ele>1492.0</ele><time>2026-05-02T15:12:03.001Z</time></trkpt><trkpt lat="45.898020806087516" lon="10.347370155427175"><ele>1492.0</ele><time>2026-05-02T15:12:05.001Z</time></trkpt><trkpt lat="45.89801623655681" lon="10.347503883457824"><ele>1492.0</ele><time>2026-05-02T15:12:08.001Z</time></trkpt><trkpt lat="45.8979915805776" lon="10.347599544644375"><ele>1492.0</ele><time>2026-05-02T15:12:10.001Z</time></trkpt><trkpt lat="45.89797478364342" lon="10.347708931333113"><ele>1492.0</ele><time>2026-05-02T15:12:12.001Z</time></trkpt><trkpt lat="45.89796867637392" lon="10.347856358287661"><ele>1492.0</ele><time>2026-05-02T15:12:15.001Z</time></trkpt><trkpt lat="45.89795040897813" lon="10.347966312013423"><ele>1492.0</ele><time>2026-05-02T15:12:17.001Z</time></trkpt><trkpt lat="45.89795915296279" lon="10.34805666826434"><ele>1492.0</ele><time>2026-05-02T15:12:19.001Z</time></trkpt><trkpt lat="45.89794014705516" lon="10.348161350408255"><ele>1492.0</ele><time>2026-05-02T15:12:21.001Z</time></trkpt><trkpt lat="45.897907085740485" lon="10.348295494343192"><ele>1492.0</ele><time>2026-05-02T15:12:24.001Z</time></trkpt><trkpt lat="45.897890017455474" lon="10.348412588142773"><ele>1492.0</ele><time>2026-05-02T15:12:27.001Z</time></trkpt><trkpt lat="45.89786699660164" lon="10.348503812714059"><ele>1492.0</ele><time>2026-05-02T15:12:28.001Z</time></trkpt><trkpt lat="45.89784241494559" lon="10.348604082108036"><ele>1492.0</ele><time>2026-05-02T15:12:30.001Z</time></trkpt><trkpt lat="45.89780790619621" lon="10.348685082597099"><ele>1492.0</ele><time>2026-05-02T15:12:32.001Z</time></trkpt><trkpt lat="45.897763713019636" lon="10.34879212262699"><ele>1492.0</ele><time>2026-05-02T15:12:34.001Z</time></trkpt><trkpt lat="45.897716923515546" lon="10.348907431236348"><ele>1492.0</ele><time>2026-05-02T15:12:36.001Z</time></trkpt><trkpt lat="45.89767115784774" lon="10.34897841831835"><ele>1491.1999999999998</ele><time>2026-05-02T15:12:38.001Z</time></trkpt><trkpt lat="45.89761063535341" lon="10.34907550886596"><ele>1490.4</ele><time>2026-05-02T15:12:40.001Z</time></trkpt><trkpt lat="45.89755530870348" lon="10.34918984075025"><ele>1489.6</ele><time>2026-05-02T15:12:43.001Z</time></trkpt><trkpt lat="45.89749912156489" lon="10.349291359863969"><ele>1488.8000000000002</ele><time>2026-05-02T15:12:46.001Z</time></trkpt><trkpt lat="45.89744749729427" lon="10.34940934372547"><ele>1488.0</ele><time>2026-05-02T15:12:49.001Z</time></trkpt><trkpt lat="45.89742019771022" lon="10.349518948412749"><ele>1494.3333333333333</ele><time>2026-05-02T15:12:51.001Z</time></trkpt><trkpt lat="45.89739647238086" lon="10.349608869194812"><ele>1500.6666666666667</ele><time>2026-05-02T15:12:53.001Z</time></trkpt><trkpt lat="45.89736788728583" lon="10.349718791506117"><ele>1507.0</ele><time>2026-05-02T15:12:56.001Z</time></trkpt><trkpt lat="45.8973524721943" lon="10.349815232989021"><ele>1513.3333333333335</ele><time>2026-05-02T15:12:58.001Z</time></trkpt><trkpt lat="45.89732835846138" lon="10.34993097899053"><ele>1519.6666666666667</ele><time>2026-05-02T15:13:01.001Z</time></trkpt><trkpt lat="45.89728372932135" lon="10.350022986294038"><ele>1526.0</ele><time>2026-05-02T15:13:03.001Z</time></trkpt><trkpt lat="45.89723421664396" lon="10.350098456066485"><ele>1526.0</ele><time>2026-05-02T15:13:06.001Z</time></trkpt><trkpt lat="45.89716913539579" lon="10.350108815110117"><ele>1526.0</ele><time>2026-05-02T15:13:11.001Z</time></trkpt><trkpt lat="45.89711123891923" lon="10.350065875801766"><ele>1526.0</ele><time>2026-05-02T15:13:40.001Z</time></trkpt><trkpt lat="45.89706565177218" lon="10.349973911779559"><ele>1526.0</ele><time>2026-05-02T15:13:44.001Z</time></trkpt><trkpt lat="45.8970175287978" lon="10.349903907715975"><ele>1526.0</ele><time>2026-05-02T15:13:46.001Z</time></trkpt><trkpt lat="45.89695883218495" lon="10.34985486936731"><ele>1526.0</ele><time>2026-05-02T15:13:48.001Z</time></trkpt><trkpt lat="45.896863113413" lon="10.349852270065172"><ele>1526.0</ele><time>2026-05-02T15:13:51.001Z</time></trkpt><trkpt lat="45.89680552720519" lon="10.34989531701284"><ele>1529.4285714285713</ele><time>2026-05-02T15:13:53.001Z</time></trkpt><trkpt lat="45.89672602277167" lon="10.349923165782487"><ele>1532.857142857143</ele><time>2026-05-02T15:13:55.001Z</time></trkpt><trkpt lat="45.896661476865894" lon="10.349935957105588"><ele>1536.2857142857142</ele><time>2026-05-02T15:13:57.001Z</time></trkpt><trkpt lat="45.89656284637178" lon="10.349936838747517"><ele>1539.7142857142858</ele><time>2026-05-02T15:14:00.001Z</time></trkpt><trkpt lat="45.89649769270321" lon="10.349927196788364"><ele>1543.142857142857</ele><time>2026-05-02T15:14:02.001Z</time></trkpt><trkpt lat="45.89642883527814" lon="10.3499435866951"><ele>1546.5714285714284</ele><time>2026-05-02T15:14:04.001Z</time></trkpt><trkpt lat="45.89636037797236" lon="10.349939162517652"><ele>1550.0</ele><time>2026-05-02T15:14:06.001Z</time></trkpt><trkpt lat="45.896288533204505" lon="10.349927687366621"><ele>1549.9999999999998</ele><time>2026-05-02T15:14:08.001Z</time></trkpt><trkpt lat="45.89621769460669" lon="10.349957231058648"><ele>1550.0</ele><time>2026-05-02T15:14:11.001Z</time></trkpt><trkpt lat="45.89616111322805" lon="10.350049563507348"><ele>1550.0</ele><time>2026-05-02T15:14:14.001Z</time></trkpt><trkpt lat="45.896086301657704" lon="10.350104392670792"><ele>1550.0</ele><time>2026-05-02T15:14:18.001Z</time></trkpt><trkpt lat="45.89601966181318" lon="10.35013354015549"><ele>1549.9999999999998</ele><time>2026-05-02T15:14:21.001Z</time></trkpt><trkpt lat="45.89594889474935" lon="10.350152082841875"><ele>1550.0</ele><time>2026-05-02T15:14:24.001Z</time></trkpt><trkpt lat="45.89587442439175" lon="10.350175350967335"><ele>1553.2857142857142</ele><time>2026-05-02T15:14:27.001Z</time></trkpt><trkpt lat="45.89581194431431" lon="10.350212462616236"><ele>1556.5714285714284</ele><time>2026-05-02T15:14:30.001Z</time></trkpt><trkpt lat="45.89575037157362" lon="10.350243757193846"><ele>1559.8571428571427</ele><time>2026-05-02T15:14:33.001Z</time></trkpt><trkpt lat="45.89568078792469" lon="10.350262189560144"><ele>1563.142857142857</ele><time>2026-05-02T15:14:37.001Z</time></trkpt><trkpt lat="45.8956097685711" lon="10.350306269160585"><ele>1566.4285714285716</ele><time>2026-05-02T15:14:42.001Z</time></trkpt><trkpt lat="45.89554188308254" lon="10.350380604268743"><ele>1569.7142857142856</ele><time>2026-05-02T15:14:46.001Z</time></trkpt><trkpt lat="45.89547490687939" lon="10.350349895464547"><ele>1573.0</ele><time>2026-05-02T15:14:49.001Z</time></trkpt><trkpt lat="45.89546197262817" lon="10.350243002814537"><ele>1573.0</ele><time>2026-05-02T15:14:53.001Z</time></trkpt><trkpt lat="45.89545921981275" lon="10.350147634641262"><ele>1573.0</ele><time>2026-05-02T15:14:57.001Z</time></trkpt><trkpt lat="45.895455092827405" lon="10.35005595302927"><ele>1573.0</ele><time>2026-05-02T15:14:59.001Z</time></trkpt><trkpt lat="45.89545575489073" lon="10.349937570027627"><ele>1573.0</ele><time>2026-05-02T15:15:02.001Z</time></trkpt><trkpt lat="45.89547829656048" lon="10.349845492415637"><ele>1573.0</ele><time>2026-05-02T15:15:04.001Z</time></trkpt><trkpt lat="45.89551511464884" lon="10.349723079285033"><ele>1573.0</ele><time>2026-05-02T15:15:07.001Z</time></trkpt><trkpt lat="45.895531690595554" lon="10.349617168903455"><ele>1573.0</ele><time>2026-05-02T15:15:10.001Z</time></trkpt><trkpt lat="45.89556553029341" lon="10.349505970295994"><ele>1576.142857142857</ele><time>2026-05-02T15:15:13.001Z</time></trkpt><trkpt lat="45.8955926920427" lon="10.349406800562354"><ele>1579.2857142857144</ele><time>2026-05-02T15:15:15.001Z</time></trkpt><trkpt lat="45.89563137808414" lon="10.349315703973993"><ele>1582.4285714285716</ele><time>2026-05-02T15:15:17.001Z</time></trkpt><trkpt lat="45.89567203507913" lon="10.349245017726469"><ele>1585.5714285714284</ele><time>2026-05-02T15:15:19.001Z</time></trkpt><trkpt lat="45.895706585411524" lon="10.349160735638977"><ele>1588.7142857142858</ele><time>2026-05-02T15:15:22.001Z</time></trkpt><trkpt lat="45.89574081764743" lon="10.349079016894846"><ele>1591.857142857143</ele><time>2026-05-02T15:15:24.001Z</time></trkpt><trkpt lat="45.89578321022886" lon="10.348973262871956"><ele>1595.0</ele><time>2026-05-02T15:15:27.001Z</time></trkpt><trkpt lat="45.89581616167934" lon="10.348875669271164"><ele>1596.142857142857</ele><time>2026-05-02T15:15:29.001Z</time></trkpt><trkpt lat="45.8958576278207" lon="10.348788076513847"><ele>1597.2857142857142</ele><time>2026-05-02T15:15:31.001Z</time></trkpt><trkpt lat="45.895847307824475" lon="10.348681020832903"><ele>1598.4285714285716</ele><time>2026-05-02T15:15:35.001Z</time></trkpt><trkpt lat="45.89583637059421" lon="10.348578199233723"><ele>1599.5714285714284</ele><time>2026-05-02T15:15:39.001Z</time></trkpt><trkpt lat="45.89578191533932" lon="10.348527933234914"><ele>1600.7142857142858</ele><time>2026-05-02T15:15:42.001Z</time></trkpt><trkpt lat="45.89572745802418" lon="10.348480334037495"><ele>1601.857142857143</ele><time>2026-05-02T15:16:13Z</time></trkpt><trkpt lat="45.895660377252426" lon="10.348466698961651"><ele>1603.0</ele><time>2026-05-02T15:16:17Z</time></trkpt><trkpt lat="45.89559923505705" lon="10.348425308858603"><ele>1603.0</ele><time>2026-05-02T15:16:20Z</time></trkpt><trkpt lat="45.89554104214687" lon="10.34838359022892"><ele>1603.0</ele><time>2026-05-02T15:16:23Z</time></trkpt><trkpt lat="45.895469036849406" lon="10.348344558101097"><ele>1603.0</ele><time>2026-05-02T15:16:27Z</time></trkpt><trkpt lat="45.89538282121308" lon="10.348324621634113"><ele>1603.0</ele><time>2026-05-02T15:16:30Z</time></trkpt><trkpt lat="45.89531622721121" lon="10.348314612858701"><ele>1603.0</ele><time>2026-05-02T15:16:33Z</time></trkpt><trkpt lat="45.895263814287475" lon="10.348370780743874"><ele>1603.0</ele><time>2026-05-02T15:16:37Z</time></trkpt><trkpt lat="45.89520421131412" lon="10.348438119712497"><ele>1603.0</ele><time>2026-05-02T15:16:40Z</time></trkpt><trkpt lat="45.895132456107895" lon="10.34848821860631"><ele>1606.6666666666667</ele><time>2026-05-02T15:16:44Z</time></trkpt><trkpt lat="45.895053876359945" lon="10.348456765574834"><ele>1610.3333333333335</ele><time>2026-05-02T15:17:38.001Z</time></trkpt><trkpt lat="45.894972401108696" lon="10.348512483456581"><ele>1614.0</ele><time>2026-05-02T15:19:49Z</time></trkpt><trkpt lat="45.89496292361556" lon="10.348423046239974"><ele>1617.6666666666665</ele><time>2026-05-02T15:19:54Z</time></trkpt><trkpt lat="45.89493565375169" lon="10.348318403918173"><ele>1621.3333333333333</ele><time>2026-05-02T15:19:57Z</time></trkpt><trkpt lat="45.89491236078279" lon="10.348176276970868"><ele>1625.0</ele><time>2026-05-02T15:20:00Z</time></trkpt><trkpt lat="45.894913482400725" lon="10.348066840759957"><ele>1624.5714285714287</ele><time>2026-05-02T15:20:03Z</time></trkpt><trkpt lat="45.894891642098884" lon="10.347961595413334"><ele>1624.1428571428573</ele><time>2026-05-02T15:20:08Z</time></trkpt><trkpt lat="45.89491761641419" lon="10.347861063259796"><ele>1623.7142857142858</ele><time>2026-05-02T15:20:12Z</time></trkpt><trkpt lat="45.89491621426333" lon="10.347764594520015"><ele>1623.2857142857142</ele><time>2026-05-02T15:20:14Z</time></trkpt><trkpt lat="45.894907017041305" lon="10.347668096462279"><ele>1622.857142857143</ele><time>2026-05-02T15:20:17Z</time></trkpt><trkpt lat="45.89486830198407" lon="10.347577954889065"><ele>1622.4285714285713</ele><time>2026-05-02T15:20:21Z</time></trkpt><trkpt lat="45.894804041287394" lon="10.3475461446178"><ele>1622.0</ele><time>2026-05-02T15:20:25Z</time></trkpt><trkpt lat="45.894781363398735" lon="10.347452447196119"><ele>1622.0</ele><time>2026-05-02T15:20:30Z</time></trkpt><trkpt lat="45.894812232199634" lon="10.347370850124518"><ele>1622.0</ele><time>2026-05-02T15:20:36Z</time></trkpt></trkseg></trk></gpx>